<?xml version="1.0" encoding="UTF-8" standalone="no" ?>
<gpx xmlns="http://www.topografix.com/GPX/1/1" xmlns:xsi="http://www.w3.org/2001/XMLSchema-instance" xsi:schemaLocation="http://www.topografix.com/GPX/1/1 http://www.topografix.com/GPX/1/1/gpx.xsd" version="1.1" creator="VisuGPX - https://www.visugpx.com">
  <metadata>
    <name>rando GR651 partie 2</name>
    <desc><![CDATA[départ de la ferme des casals
]]></desc>
  </metadata>
  <trk>
    <name><![CDATA[Traces enregistrées avec OSMTracker pour Android™]]></name>
    <trkseg>
      <trkpt lat="44.57221" lon="1.7672">
        <ele>293</ele>
        <time>2018-05-10T06:35:27Z</time>
      </trkpt>
      <trkpt lat="44.57224" lon="1.76719">
        <ele>293</ele>
        <time>2018-05-10T06:35:48Z</time>
      </trkpt>
      <trkpt lat="44.57237" lon="1.76717">
        <ele>294</ele>
        <time>2018-05-10T06:36:08Z</time>
      </trkpt>
      <trkpt lat="44.57264" lon="1.76705">
        <ele>297</ele>
        <time>2018-05-10T06:36:29Z</time>
      </trkpt>
      <trkpt lat="44.57286" lon="1.76684">
        <ele>298</ele>
        <time>2018-05-10T06:36:49Z</time>
      </trkpt>
      <trkpt lat="44.57294" lon="1.76686">
        <ele>298</ele>
        <time>2018-05-10T06:37:10Z</time>
      </trkpt>
      <trkpt lat="44.57321" lon="1.76705">
        <ele>298</ele>
        <time>2018-05-10T06:37:30Z</time>
      </trkpt>
      <trkpt lat="44.57343" lon="1.76715">
        <ele>300</ele>
        <time>2018-05-10T06:37:51Z</time>
      </trkpt>
      <trkpt lat="44.57369" lon="1.76714">
        <ele>301</ele>
        <time>2018-05-10T06:38:12Z</time>
      </trkpt>
      <trkpt lat="44.57395" lon="1.76729">
        <ele>301</ele>
        <time>2018-05-10T06:38:33Z</time>
      </trkpt>
      <trkpt lat="44.57413" lon="1.76755">
        <ele>301</ele>
        <time>2018-05-10T06:38:54Z</time>
      </trkpt>
      <trkpt lat="44.57435" lon="1.7675">
        <ele>303</ele>
        <time>2018-05-10T06:39:15Z</time>
      </trkpt>
      <trkpt lat="44.57452" lon="1.76725">
        <ele>303</ele>
        <time>2018-05-10T06:39:35Z</time>
      </trkpt>
      <trkpt lat="44.57472" lon="1.76703">
        <ele>302</ele>
        <time>2018-05-10T06:39:56Z</time>
      </trkpt>
      <trkpt lat="44.57491" lon="1.76673">
        <ele>302</ele>
        <time>2018-05-10T06:40:17Z</time>
      </trkpt>
      <trkpt lat="44.5751" lon="1.76649">
        <ele>301</ele>
        <time>2018-05-10T06:40:38Z</time>
      </trkpt>
      <trkpt lat="44.5753" lon="1.76625">
        <ele>301</ele>
        <time>2018-05-10T06:40:59Z</time>
      </trkpt>
      <trkpt lat="44.57548" lon="1.766">
        <ele>301</ele>
        <time>2018-05-10T06:41:19Z</time>
      </trkpt>
      <trkpt lat="44.57565" lon="1.76575">
        <ele>300</ele>
        <time>2018-05-10T06:41:40Z</time>
      </trkpt>
      <trkpt lat="44.57575" lon="1.76546">
        <ele>300</ele>
        <time>2018-05-10T06:42:01Z</time>
      </trkpt>
      <trkpt lat="44.57567" lon="1.76518">
        <ele>299</ele>
        <time>2018-05-10T06:42:21Z</time>
      </trkpt>
      <trkpt lat="44.57556" lon="1.76493">
        <ele>301</ele>
        <time>2018-05-10T06:42:41Z</time>
      </trkpt>
      <trkpt lat="44.57543" lon="1.7647">
        <ele>302</ele>
        <time>2018-05-10T06:43:01Z</time>
      </trkpt>
      <trkpt lat="44.57532" lon="1.76444">
        <ele>303</ele>
        <time>2018-05-10T06:43:22Z</time>
      </trkpt>
      <trkpt lat="44.57522" lon="1.76423">
        <ele>305</ele>
        <time>2018-05-10T06:43:42Z</time>
      </trkpt>
      <trkpt lat="44.57512" lon="1.76405">
        <ele>308</ele>
        <time>2018-05-10T06:44:03Z</time>
      </trkpt>
      <trkpt lat="44.575" lon="1.76382">
        <ele>313</ele>
        <time>2018-05-10T06:44:24Z</time>
      </trkpt>
      <trkpt lat="44.57489" lon="1.76355">
        <ele>314</ele>
        <time>2018-05-10T06:44:45Z</time>
      </trkpt>
      <trkpt lat="44.57475" lon="1.76333">
        <ele>314</ele>
        <time>2018-05-10T06:45:05Z</time>
      </trkpt>
      <trkpt lat="44.57462" lon="1.76307">
        <ele>314</ele>
        <time>2018-05-10T06:45:26Z</time>
      </trkpt>
      <trkpt lat="44.57449" lon="1.76279">
        <ele>314</ele>
        <time>2018-05-10T06:45:47Z</time>
      </trkpt>
      <trkpt lat="44.57434" lon="1.76255">
        <ele>314</ele>
        <time>2018-05-10T06:46:08Z</time>
      </trkpt>
      <trkpt lat="44.57424" lon="1.76227">
        <ele>311</ele>
        <time>2018-05-10T06:46:29Z</time>
      </trkpt>
      <trkpt lat="44.57411" lon="1.76204">
        <ele>311</ele>
        <time>2018-05-10T06:46:49Z</time>
      </trkpt>
      <trkpt lat="44.57399" lon="1.76177">
        <ele>310</ele>
        <time>2018-05-10T06:47:10Z</time>
      </trkpt>
      <trkpt lat="44.57383" lon="1.76164">
        <ele>307</ele>
        <time>2018-05-10T06:47:30Z</time>
      </trkpt>
      <trkpt lat="44.57375" lon="1.76158">
        <ele>307</ele>
        <time>2018-05-10T06:47:51Z</time>
      </trkpt>
      <trkpt lat="44.57375" lon="1.76158">
        <ele>307</ele>
        <time>2018-05-10T06:48:12Z</time>
      </trkpt>
      <trkpt lat="44.5737" lon="1.76157">
        <ele>307</ele>
        <time>2018-05-10T06:48:32Z</time>
      </trkpt>
      <trkpt lat="44.57353" lon="1.76139">
        <ele>306</ele>
        <time>2018-05-10T06:48:53Z</time>
      </trkpt>
      <trkpt lat="44.57327" lon="1.76131">
        <ele>307</ele>
        <time>2018-05-10T06:49:14Z</time>
      </trkpt>
      <trkpt lat="44.57306" lon="1.76116">
        <ele>307</ele>
        <time>2018-05-10T06:49:35Z</time>
      </trkpt>
      <trkpt lat="44.57285" lon="1.76105">
        <ele>307</ele>
        <time>2018-05-10T06:49:55Z</time>
      </trkpt>
      <trkpt lat="44.57262" lon="1.76092">
        <ele>307</ele>
        <time>2018-05-10T06:50:16Z</time>
      </trkpt>
      <trkpt lat="44.57243" lon="1.76081">
        <ele>308</ele>
        <time>2018-05-10T06:50:36Z</time>
      </trkpt>
      <trkpt lat="44.57224" lon="1.76067">
        <ele>307</ele>
        <time>2018-05-10T06:50:57Z</time>
      </trkpt>
      <trkpt lat="44.57204" lon="1.76053">
        <ele>306</ele>
        <time>2018-05-10T06:51:17Z</time>
      </trkpt>
      <trkpt lat="44.57181" lon="1.7604">
        <ele>306</ele>
        <time>2018-05-10T06:51:38Z</time>
      </trkpt>
      <trkpt lat="44.57159" lon="1.76023">
        <ele>305</ele>
        <time>2018-05-10T06:51:59Z</time>
      </trkpt>
      <trkpt lat="44.57135" lon="1.76012">
        <ele>305</ele>
        <time>2018-05-10T06:52:20Z</time>
      </trkpt>
      <trkpt lat="44.57116" lon="1.75996">
        <ele>306</ele>
        <time>2018-05-10T06:52:40Z</time>
      </trkpt>
      <trkpt lat="44.57094" lon="1.75986">
        <ele>306</ele>
        <time>2018-05-10T06:53:01Z</time>
      </trkpt>
      <trkpt lat="44.57071" lon="1.7598">
        <ele>305</ele>
        <time>2018-05-10T06:53:22Z</time>
      </trkpt>
      <trkpt lat="44.5705" lon="1.75975">
        <ele>305</ele>
        <time>2018-05-10T06:53:42Z</time>
      </trkpt>
      <trkpt lat="44.57023" lon="1.75972">
        <ele>305</ele>
        <time>2018-05-10T06:54:02Z</time>
      </trkpt>
      <trkpt lat="44.56999" lon="1.75966">
        <ele>304</ele>
        <time>2018-05-10T06:54:23Z</time>
      </trkpt>
      <trkpt lat="44.56976" lon="1.7596">
        <ele>304</ele>
        <time>2018-05-10T06:54:43Z</time>
      </trkpt>
      <trkpt lat="44.56952" lon="1.75959">
        <ele>304</ele>
        <time>2018-05-10T06:55:04Z</time>
      </trkpt>
      <trkpt lat="44.56929" lon="1.75951">
        <ele>304</ele>
        <time>2018-05-10T06:55:25Z</time>
      </trkpt>
      <trkpt lat="44.56904" lon="1.75947">
        <ele>304</ele>
        <time>2018-05-10T06:55:46Z</time>
      </trkpt>
      <trkpt lat="44.56879" lon="1.75944">
        <ele>304</ele>
        <time>2018-05-10T06:56:07Z</time>
      </trkpt>
      <trkpt lat="44.56854" lon="1.75936">
        <ele>305</ele>
        <time>2018-05-10T06:56:28Z</time>
      </trkpt>
      <trkpt lat="44.56831" lon="1.75933">
        <ele>305</ele>
        <time>2018-05-10T06:56:48Z</time>
      </trkpt>
      <trkpt lat="44.56807" lon="1.75929">
        <ele>305</ele>
        <time>2018-05-10T06:57:09Z</time>
      </trkpt>
      <trkpt lat="44.56782" lon="1.7592">
        <ele>305</ele>
        <time>2018-05-10T06:57:30Z</time>
      </trkpt>
      <trkpt lat="44.56762" lon="1.75914">
        <ele>306</ele>
        <time>2018-05-10T06:57:51Z</time>
      </trkpt>
      <trkpt lat="44.56734" lon="1.7591">
        <ele>306</ele>
        <time>2018-05-10T06:58:12Z</time>
      </trkpt>
      <trkpt lat="44.56709" lon="1.75905">
        <ele>306</ele>
        <time>2018-05-10T06:58:33Z</time>
      </trkpt>
      <trkpt lat="44.56685" lon="1.75904">
        <ele>306</ele>
        <time>2018-05-10T06:58:54Z</time>
      </trkpt>
      <trkpt lat="44.56664" lon="1.75897">
        <ele>307</ele>
        <time>2018-05-10T06:59:15Z</time>
      </trkpt>
      <trkpt lat="44.56639" lon="1.75892">
        <ele>307</ele>
        <time>2018-05-10T06:59:36Z</time>
      </trkpt>
      <trkpt lat="44.56616" lon="1.7589">
        <ele>307</ele>
        <time>2018-05-10T06:59:56Z</time>
      </trkpt>
      <trkpt lat="44.56595" lon="1.75885">
        <ele>308</ele>
        <time>2018-05-10T07:00:17Z</time>
      </trkpt>
      <trkpt lat="44.5657" lon="1.75879">
        <ele>307</ele>
        <time>2018-05-10T07:00:38Z</time>
      </trkpt>
      <trkpt lat="44.56546" lon="1.75872">
        <ele>307</ele>
        <time>2018-05-10T07:00:58Z</time>
      </trkpt>
      <trkpt lat="44.56519" lon="1.7587">
        <ele>306</ele>
        <time>2018-05-10T07:01:19Z</time>
      </trkpt>
      <trkpt lat="44.56496" lon="1.75867">
        <ele>304</ele>
        <time>2018-05-10T07:01:39Z</time>
      </trkpt>
      <trkpt lat="44.56471" lon="1.75861">
        <ele>304</ele>
        <time>2018-05-10T07:02:00Z</time>
      </trkpt>
      <trkpt lat="44.56448" lon="1.7587">
        <ele>304</ele>
        <time>2018-05-10T07:02:20Z</time>
      </trkpt>
      <trkpt lat="44.56425" lon="1.75882">
        <ele>304</ele>
        <time>2018-05-10T07:02:41Z</time>
      </trkpt>
      <trkpt lat="44.5642" lon="1.75886">
        <ele>304</ele>
        <time>2018-05-10T07:03:01Z</time>
      </trkpt>
      <trkpt lat="44.5642" lon="1.75887">
        <ele>304</ele>
        <time>2018-05-10T07:03:22Z</time>
      </trkpt>
      <trkpt lat="44.56416" lon="1.75889">
        <ele>302</ele>
        <time>2018-05-10T07:03:42Z</time>
      </trkpt>
      <trkpt lat="44.56394" lon="1.75894">
        <ele>302</ele>
        <time>2018-05-10T07:04:03Z</time>
      </trkpt>
      <trkpt lat="44.56373" lon="1.75907">
        <ele>302</ele>
        <time>2018-05-10T07:04:24Z</time>
      </trkpt>
      <trkpt lat="44.5636" lon="1.75893">
        <ele>301</ele>
        <time>2018-05-10T07:04:45Z</time>
      </trkpt>
      <trkpt lat="44.56341" lon="1.75887">
        <ele>301</ele>
        <time>2018-05-10T07:05:05Z</time>
      </trkpt>
      <trkpt lat="44.56325" lon="1.75868">
        <ele>296</ele>
        <time>2018-05-10T07:05:26Z</time>
      </trkpt>
      <trkpt lat="44.56306" lon="1.75858">
        <ele>296</ele>
        <time>2018-05-10T07:05:47Z</time>
      </trkpt>
      <trkpt lat="44.56286" lon="1.75868">
        <ele>295</ele>
        <time>2018-05-10T07:06:08Z</time>
      </trkpt>
      <trkpt lat="44.56279" lon="1.75849">
        <ele>294</ele>
        <time>2018-05-10T07:06:29Z</time>
      </trkpt>
      <trkpt lat="44.56266" lon="1.75828">
        <ele>288</ele>
        <time>2018-05-10T07:06:50Z</time>
      </trkpt>
      <trkpt lat="44.56251" lon="1.75808">
        <ele>287</ele>
        <time>2018-05-10T07:07:11Z</time>
      </trkpt>
      <trkpt lat="44.56238" lon="1.75789">
        <ele>280</ele>
        <time>2018-05-10T07:07:31Z</time>
      </trkpt>
      <trkpt lat="44.56226" lon="1.7577">
        <ele>278</ele>
        <time>2018-05-10T07:07:52Z</time>
      </trkpt>
      <trkpt lat="44.56202" lon="1.75771">
        <ele>277</ele>
        <time>2018-05-10T07:08:13Z</time>
      </trkpt>
      <trkpt lat="44.56182" lon="1.75772">
        <ele>275</ele>
        <time>2018-05-10T07:08:33Z</time>
      </trkpt>
      <trkpt lat="44.5617" lon="1.75786">
        <ele>276</ele>
        <time>2018-05-10T07:08:53Z</time>
      </trkpt>
      <trkpt lat="44.56172" lon="1.75784">
        <ele>276</ele>
        <time>2018-05-10T07:09:14Z</time>
      </trkpt>
      <trkpt lat="44.56162" lon="1.75801">
        <ele>275</ele>
        <time>2018-05-10T07:09:35Z</time>
      </trkpt>
      <trkpt lat="44.5614" lon="1.75835">
        <ele>281</ele>
        <time>2018-05-10T07:09:56Z</time>
      </trkpt>
      <trkpt lat="44.5612" lon="1.75859">
        <ele>281</ele>
        <time>2018-05-10T07:10:17Z</time>
      </trkpt>
      <trkpt lat="44.56105" lon="1.75884">
        <ele>283</ele>
        <time>2018-05-10T07:10:38Z</time>
      </trkpt>
      <trkpt lat="44.56081" lon="1.75905">
        <ele>285</ele>
        <time>2018-05-10T07:10:59Z</time>
      </trkpt>
      <trkpt lat="44.56047" lon="1.75932">
        <ele>288</ele>
        <time>2018-05-10T07:11:20Z</time>
      </trkpt>
      <trkpt lat="44.56037" lon="1.75951">
        <ele>288</ele>
        <time>2018-05-10T07:11:41Z</time>
      </trkpt>
      <trkpt lat="44.56026" lon="1.75983">
        <ele>289</ele>
        <time>2018-05-10T07:12:01Z</time>
      </trkpt>
      <trkpt lat="44.56009" lon="1.75996">
        <ele>289</ele>
        <time>2018-05-10T07:12:22Z</time>
      </trkpt>
      <trkpt lat="44.55992" lon="1.76024">
        <ele>290</ele>
        <time>2018-05-10T07:12:43Z</time>
      </trkpt>
      <trkpt lat="44.55974" lon="1.76047">
        <ele>289</ele>
        <time>2018-05-10T07:13:04Z</time>
      </trkpt>
      <trkpt lat="44.55953" lon="1.76072">
        <ele>289</ele>
        <time>2018-05-10T07:13:24Z</time>
      </trkpt>
      <trkpt lat="44.55933" lon="1.76086">
        <ele>289</ele>
        <time>2018-05-10T07:13:45Z</time>
      </trkpt>
      <trkpt lat="44.55912" lon="1.76109">
        <ele>289</ele>
        <time>2018-05-10T07:14:06Z</time>
      </trkpt>
      <trkpt lat="44.55906" lon="1.76114">
        <ele>288</ele>
        <time>2018-05-10T07:14:27Z</time>
      </trkpt>
      <trkpt lat="44.55906" lon="1.76114">
        <ele>288</ele>
        <time>2018-05-10T07:14:48Z</time>
      </trkpt>
      <trkpt lat="44.55906" lon="1.76114">
        <ele>288</ele>
        <time>2018-05-10T07:15:09Z</time>
      </trkpt>
      <trkpt lat="44.55906" lon="1.76114">
        <ele>288</ele>
        <time>2018-05-10T07:15:30Z</time>
      </trkpt>
      <trkpt lat="44.55906" lon="1.76114">
        <ele>288</ele>
        <time>2018-05-10T07:15:51Z</time>
      </trkpt>
      <trkpt lat="44.55904" lon="1.76122">
        <ele>288</ele>
        <time>2018-05-10T07:16:12Z</time>
      </trkpt>
      <trkpt lat="44.55892" lon="1.76159">
        <ele>288</ele>
        <time>2018-05-10T07:16:32Z</time>
      </trkpt>
      <trkpt lat="44.55883" lon="1.76175">
        <ele>287</ele>
        <time>2018-05-10T07:16:52Z</time>
      </trkpt>
      <trkpt lat="44.5587" lon="1.76204">
        <ele>286</ele>
        <time>2018-05-10T07:17:13Z</time>
      </trkpt>
      <trkpt lat="44.55854" lon="1.76236">
        <ele>286</ele>
        <time>2018-05-10T07:17:33Z</time>
      </trkpt>
      <trkpt lat="44.55837" lon="1.7628">
        <ele>284</ele>
        <time>2018-05-10T07:17:54Z</time>
      </trkpt>
      <trkpt lat="44.55821" lon="1.76311">
        <ele>283</ele>
        <time>2018-05-10T07:18:14Z</time>
      </trkpt>
      <trkpt lat="44.55804" lon="1.76338">
        <ele>281</ele>
        <time>2018-05-10T07:18:35Z</time>
      </trkpt>
      <trkpt lat="44.55795" lon="1.7637">
        <ele>280</ele>
        <time>2018-05-10T07:18:55Z</time>
      </trkpt>
      <trkpt lat="44.5579" lon="1.76401">
        <ele>279</ele>
        <time>2018-05-10T07:19:15Z</time>
      </trkpt>
      <trkpt lat="44.55786" lon="1.76423">
        <ele>276</ele>
        <time>2018-05-10T07:19:35Z</time>
      </trkpt>
      <trkpt lat="44.55776" lon="1.76457">
        <ele>275</ele>
        <time>2018-05-10T07:19:56Z</time>
      </trkpt>
      <trkpt lat="44.55767" lon="1.76478">
        <ele>274</ele>
        <time>2018-05-10T07:20:17Z</time>
      </trkpt>
      <trkpt lat="44.55757" lon="1.76507">
        <ele>270</ele>
        <time>2018-05-10T07:20:37Z</time>
      </trkpt>
      <trkpt lat="44.5575" lon="1.76533">
        <ele>267</ele>
        <time>2018-05-10T07:20:57Z</time>
      </trkpt>
      <trkpt lat="44.55742" lon="1.76558">
        <ele>265</ele>
        <time>2018-05-10T07:21:17Z</time>
      </trkpt>
      <trkpt lat="44.5574" lon="1.76569">
        <ele>265</ele>
        <time>2018-05-10T07:21:38Z</time>
      </trkpt>
      <trkpt lat="44.55727" lon="1.76593">
        <ele>260</ele>
        <time>2018-05-10T07:21:58Z</time>
      </trkpt>
      <trkpt lat="44.55723" lon="1.76602">
        <ele>259</ele>
        <time>2018-05-10T07:22:18Z</time>
      </trkpt>
      <trkpt lat="44.55718" lon="1.76642">
        <ele>257</ele>
        <time>2018-05-10T07:22:38Z</time>
      </trkpt>
      <trkpt lat="44.55713" lon="1.76675">
        <ele>247</ele>
        <time>2018-05-10T07:22:59Z</time>
      </trkpt>
      <trkpt lat="44.557" lon="1.76673">
        <ele>246</ele>
        <time>2018-05-10T07:23:20Z</time>
      </trkpt>
      <trkpt lat="44.557" lon="1.76673">
        <ele>246</ele>
        <time>2018-05-10T07:23:41Z</time>
      </trkpt>
      <trkpt lat="44.557" lon="1.76673">
        <ele>246</ele>
        <time>2018-05-10T07:24:01Z</time>
      </trkpt>
      <trkpt lat="44.55699" lon="1.76678">
        <ele>246</ele>
        <time>2018-05-10T07:24:22Z</time>
      </trkpt>
      <trkpt lat="44.55697" lon="1.76683">
        <ele>245</ele>
        <time>2018-05-10T07:24:43Z</time>
      </trkpt>
      <trkpt lat="44.55693" lon="1.76702">
        <ele>243</ele>
        <time>2018-05-10T07:25:03Z</time>
      </trkpt>
      <trkpt lat="44.55689" lon="1.76721">
        <ele>240</ele>
        <time>2018-05-10T07:25:24Z</time>
      </trkpt>
      <trkpt lat="44.55702" lon="1.76744">
        <ele>239</ele>
        <time>2018-05-10T07:25:45Z</time>
      </trkpt>
      <trkpt lat="44.55717" lon="1.76765">
        <ele>229</ele>
        <time>2018-05-10T07:26:06Z</time>
      </trkpt>
      <trkpt lat="44.55735" lon="1.76783">
        <ele>228</ele>
        <time>2018-05-10T07:26:26Z</time>
      </trkpt>
      <trkpt lat="44.55727" lon="1.7679">
        <ele>226</ele>
        <time>2018-05-10T07:26:46Z</time>
      </trkpt>
      <trkpt lat="44.55707" lon="1.76789">
        <ele>225</ele>
        <time>2018-05-10T07:27:07Z</time>
      </trkpt>
      <trkpt lat="44.5568" lon="1.76788">
        <ele>224</ele>
        <time>2018-05-10T07:27:28Z</time>
      </trkpt>
      <trkpt lat="44.55657" lon="1.76776">
        <ele>219</ele>
        <time>2018-05-10T07:27:49Z</time>
      </trkpt>
      <trkpt lat="44.55637" lon="1.7676">
        <ele>218</ele>
        <time>2018-05-10T07:28:10Z</time>
      </trkpt>
      <trkpt lat="44.55612" lon="1.76748">
        <ele>227</ele>
        <time>2018-05-10T07:28:31Z</time>
      </trkpt>
      <trkpt lat="44.55607" lon="1.76768">
        <ele>215</ele>
        <time>2018-05-10T07:28:52Z</time>
      </trkpt>
      <trkpt lat="44.55624" lon="1.76792">
        <ele>214</ele>
        <time>2018-05-10T07:29:13Z</time>
      </trkpt>
      <trkpt lat="44.55637" lon="1.76824">
        <ele>213</ele>
        <time>2018-05-10T07:29:33Z</time>
      </trkpt>
      <trkpt lat="44.55647" lon="1.76843">
        <ele>204</ele>
        <time>2018-05-10T07:29:54Z</time>
      </trkpt>
      <trkpt lat="44.55668" lon="1.76869">
        <ele>205</ele>
        <time>2018-05-10T07:30:15Z</time>
      </trkpt>
      <trkpt lat="44.5567" lon="1.76889">
        <ele>201</ele>
        <time>2018-05-10T07:30:35Z</time>
      </trkpt>
      <trkpt lat="44.55647" lon="1.76899">
        <ele>197</ele>
        <time>2018-05-10T07:30:56Z</time>
      </trkpt>
      <trkpt lat="44.55625" lon="1.76904">
        <ele>196</ele>
        <time>2018-05-10T07:31:17Z</time>
      </trkpt>
      <trkpt lat="44.55602" lon="1.76906">
        <ele>193</ele>
        <time>2018-05-10T07:31:37Z</time>
      </trkpt>
      <trkpt lat="44.55578" lon="1.7691">
        <ele>188</ele>
        <time>2018-05-10T07:31:58Z</time>
      </trkpt>
      <trkpt lat="44.55555" lon="1.76926">
        <ele>181</ele>
        <time>2018-05-10T07:32:19Z</time>
      </trkpt>
      <trkpt lat="44.55539" lon="1.76939">
        <ele>180</ele>
        <time>2018-05-10T07:32:40Z</time>
      </trkpt>
      <trkpt lat="44.55522" lon="1.76947">
        <ele>179</ele>
        <time>2018-05-10T07:33:01Z</time>
      </trkpt>
      <trkpt lat="44.55522" lon="1.76948">
        <ele>179</ele>
        <time>2018-05-10T07:33:21Z</time>
      </trkpt>
      <trkpt lat="44.55522" lon="1.76948">
        <ele>179</ele>
        <time>2018-05-10T07:33:41Z</time>
      </trkpt>
      <trkpt lat="44.55501" lon="1.76964">
        <ele>178</ele>
        <time>2018-05-10T07:34:01Z</time>
      </trkpt>
      <trkpt lat="44.55484" lon="1.76976">
        <ele>175</ele>
        <time>2018-05-10T07:34:22Z</time>
      </trkpt>
      <trkpt lat="44.55465" lon="1.76981">
        <ele>174</ele>
        <time>2018-05-10T07:34:42Z</time>
      </trkpt>
      <trkpt lat="44.55446" lon="1.76987">
        <ele>174</ele>
        <time>2018-05-10T07:35:03Z</time>
      </trkpt>
      <trkpt lat="44.55424" lon="1.77004">
        <ele>171</ele>
        <time>2018-05-10T07:35:23Z</time>
      </trkpt>
      <trkpt lat="44.55401" lon="1.77008">
        <ele>169</ele>
        <time>2018-05-10T07:35:43Z</time>
      </trkpt>
      <trkpt lat="44.55383" lon="1.76992">
        <ele>170</ele>
        <time>2018-05-10T07:36:04Z</time>
      </trkpt>
      <trkpt lat="44.55383" lon="1.76991">
        <ele>170</ele>
        <time>2018-05-10T07:36:24Z</time>
      </trkpt>
      <trkpt lat="44.55362" lon="1.76983">
        <ele>170</ele>
        <time>2018-05-10T07:36:45Z</time>
      </trkpt>
      <trkpt lat="44.55342" lon="1.76971">
        <ele>169</ele>
        <time>2018-05-10T07:37:06Z</time>
      </trkpt>
      <trkpt lat="44.55342" lon="1.76969">
        <ele>169</ele>
        <time>2018-05-10T07:37:26Z</time>
      </trkpt>
      <trkpt lat="44.55342" lon="1.76969">
        <ele>169</ele>
        <time>2018-05-10T07:37:47Z</time>
      </trkpt>
      <trkpt lat="44.55347" lon="1.76973">
        <ele>169</ele>
        <time>2018-05-10T07:38:07Z</time>
      </trkpt>
      <trkpt lat="44.55343" lon="1.76959">
        <ele>170</ele>
        <time>2018-05-10T07:38:27Z</time>
      </trkpt>
      <trkpt lat="44.55344" lon="1.76921">
        <ele>170</ele>
        <time>2018-05-10T07:38:47Z</time>
      </trkpt>
      <trkpt lat="44.55346" lon="1.76918">
        <ele>170</ele>
        <time>2018-05-10T07:39:08Z</time>
      </trkpt>
      <trkpt lat="44.55348" lon="1.76919">
        <ele>170</ele>
        <time>2018-05-10T07:39:28Z</time>
      </trkpt>
      <trkpt lat="44.55348" lon="1.76919">
        <ele>170</ele>
        <time>2018-05-10T07:39:49Z</time>
      </trkpt>
      <trkpt lat="44.55348" lon="1.76919">
        <ele>170</ele>
        <time>2018-05-10T07:40:10Z</time>
      </trkpt>
      <trkpt lat="44.55348" lon="1.76903">
        <ele>172</ele>
        <time>2018-05-10T07:40:31Z</time>
      </trkpt>
      <trkpt lat="44.55349" lon="1.7687">
        <ele>174</ele>
        <time>2018-05-10T07:40:51Z</time>
      </trkpt>
      <trkpt lat="44.55353" lon="1.76837">
        <ele>174</ele>
        <time>2018-05-10T07:41:12Z</time>
      </trkpt>
      <trkpt lat="44.55355" lon="1.76815">
        <ele>180</ele>
        <time>2018-05-10T07:41:32Z</time>
      </trkpt>
      <trkpt lat="44.55347" lon="1.76786">
        <ele>182</ele>
        <time>2018-05-10T07:41:53Z</time>
      </trkpt>
      <trkpt lat="44.55338" lon="1.76761">
        <ele>183</ele>
        <time>2018-05-10T07:42:13Z</time>
      </trkpt>
      <trkpt lat="44.55334" lon="1.76752">
        <ele>184</ele>
        <time>2018-05-10T07:42:34Z</time>
      </trkpt>
      <trkpt lat="44.55321" lon="1.76729">
        <ele>183</ele>
        <time>2018-05-10T07:42:54Z</time>
      </trkpt>
      <trkpt lat="44.55312" lon="1.76695">
        <ele>185</ele>
        <time>2018-05-10T07:43:15Z</time>
      </trkpt>
      <trkpt lat="44.55303" lon="1.76669">
        <ele>185</ele>
        <time>2018-05-10T07:43:36Z</time>
      </trkpt>
      <trkpt lat="44.55304" lon="1.76668">
        <ele>186</ele>
        <time>2018-05-10T07:43:56Z</time>
      </trkpt>
      <trkpt lat="44.55304" lon="1.76667">
        <ele>186</ele>
        <time>2018-05-10T07:44:17Z</time>
      </trkpt>
      <trkpt lat="44.55304" lon="1.76667">
        <ele>186</ele>
        <time>2018-05-10T07:44:37Z</time>
      </trkpt>
      <trkpt lat="44.55304" lon="1.76667">
        <ele>186</ele>
        <time>2018-05-10T07:44:58Z</time>
      </trkpt>
      <trkpt lat="44.55304" lon="1.76667">
        <ele>186</ele>
        <time>2018-05-10T07:45:18Z</time>
      </trkpt>
      <trkpt lat="44.55304" lon="1.76667">
        <ele>186</ele>
        <time>2018-05-10T07:45:39Z</time>
      </trkpt>
      <trkpt lat="44.55304" lon="1.76667">
        <ele>186</ele>
        <time>2018-05-10T07:45:59Z</time>
      </trkpt>
      <trkpt lat="44.55304" lon="1.76667">
        <ele>186</ele>
        <time>2018-05-10T07:46:20Z</time>
      </trkpt>
      <trkpt lat="44.55305" lon="1.76659">
        <ele>192</ele>
        <time>2018-05-10T07:46:40Z</time>
      </trkpt>
      <trkpt lat="44.55307" lon="1.76634">
        <ele>193</ele>
        <time>2018-05-10T07:47:01Z</time>
      </trkpt>
      <trkpt lat="44.5531" lon="1.76614">
        <ele>195</ele>
        <time>2018-05-10T07:47:22Z</time>
      </trkpt>
      <trkpt lat="44.55309" lon="1.76592">
        <ele>198</ele>
        <time>2018-05-10T07:47:43Z</time>
      </trkpt>
      <trkpt lat="44.55305" lon="1.76567">
        <ele>204</ele>
        <time>2018-05-10T07:48:03Z</time>
      </trkpt>
      <trkpt lat="44.55303" lon="1.76544">
        <ele>205</ele>
        <time>2018-05-10T07:48:23Z</time>
      </trkpt>
      <trkpt lat="44.55301" lon="1.76514">
        <ele>208</ele>
        <time>2018-05-10T07:48:44Z</time>
      </trkpt>
      <trkpt lat="44.55302" lon="1.76488">
        <ele>217</ele>
        <time>2018-05-10T07:49:05Z</time>
      </trkpt>
      <trkpt lat="44.55296" lon="1.76457">
        <ele>217</ele>
        <time>2018-05-10T07:49:26Z</time>
      </trkpt>
      <trkpt lat="44.55294" lon="1.76426">
        <ele>219</ele>
        <time>2018-05-10T07:49:47Z</time>
      </trkpt>
      <trkpt lat="44.5529" lon="1.76398">
        <ele>227</ele>
        <time>2018-05-10T07:50:08Z</time>
      </trkpt>
      <trkpt lat="44.55287" lon="1.76374">
        <ele>228</ele>
        <time>2018-05-10T07:50:29Z</time>
      </trkpt>
      <trkpt lat="44.55283" lon="1.76345">
        <ele>228</ele>
        <time>2018-05-10T07:50:50Z</time>
      </trkpt>
      <trkpt lat="44.55276" lon="1.76309">
        <ele>236</ele>
        <time>2018-05-10T07:51:11Z</time>
      </trkpt>
      <trkpt lat="44.5527" lon="1.76283">
        <ele>237</ele>
        <time>2018-05-10T07:51:32Z</time>
      </trkpt>
      <trkpt lat="44.55264" lon="1.76255">
        <ele>236</ele>
        <time>2018-05-10T07:51:52Z</time>
      </trkpt>
      <trkpt lat="44.55253" lon="1.76227">
        <ele>243</ele>
        <time>2018-05-10T07:52:13Z</time>
      </trkpt>
      <trkpt lat="44.55246" lon="1.762">
        <ele>229</ele>
        <time>2018-05-10T07:52:34Z</time>
      </trkpt>
      <trkpt lat="44.55236" lon="1.76174">
        <ele>234</ele>
        <time>2018-05-10T07:52:55Z</time>
      </trkpt>
      <trkpt lat="44.55233" lon="1.76158">
        <ele>238</ele>
        <time>2018-05-10T07:53:15Z</time>
      </trkpt>
      <trkpt lat="44.55239" lon="1.76167">
        <ele>237</ele>
        <time>2018-05-10T07:53:36Z</time>
      </trkpt>
      <trkpt lat="44.55259" lon="1.76196">
        <ele>248</ele>
        <time>2018-05-10T07:53:57Z</time>
      </trkpt>
      <trkpt lat="44.55274" lon="1.76211">
        <ele>248</ele>
        <time>2018-05-10T07:54:18Z</time>
      </trkpt>
      <trkpt lat="44.55273" lon="1.76202">
        <ele>249</ele>
        <time>2018-05-10T07:54:38Z</time>
      </trkpt>
      <trkpt lat="44.55265" lon="1.76174">
        <ele>249</ele>
        <time>2018-05-10T07:54:59Z</time>
      </trkpt>
      <trkpt lat="44.5525" lon="1.76143">
        <ele>253</ele>
        <time>2018-05-10T07:55:19Z</time>
      </trkpt>
      <trkpt lat="44.55235" lon="1.76114">
        <ele>239</ele>
        <time>2018-05-10T07:55:40Z</time>
      </trkpt>
      <trkpt lat="44.55225" lon="1.76083">
        <ele>248</ele>
        <time>2018-05-10T07:56:01Z</time>
      </trkpt>
      <trkpt lat="44.55218" lon="1.76075">
        <ele>246</ele>
        <time>2018-05-10T07:56:21Z</time>
      </trkpt>
      <trkpt lat="44.55203" lon="1.76049">
        <ele>245</ele>
        <time>2018-05-10T07:56:42Z</time>
      </trkpt>
      <trkpt lat="44.55194" lon="1.76026">
        <ele>246</ele>
        <time>2018-05-10T07:57:02Z</time>
      </trkpt>
      <trkpt lat="44.55185" lon="1.75996">
        <ele>250</ele>
        <time>2018-05-10T07:57:23Z</time>
      </trkpt>
      <trkpt lat="44.55178" lon="1.75976">
        <ele>250</ele>
        <time>2018-05-10T07:57:44Z</time>
      </trkpt>
      <trkpt lat="44.5516" lon="1.75948">
        <ele>248</ele>
        <time>2018-05-10T07:58:05Z</time>
      </trkpt>
      <trkpt lat="44.55152" lon="1.75927">
        <ele>249</ele>
        <time>2018-05-10T07:58:26Z</time>
      </trkpt>
      <trkpt lat="44.5515" lon="1.75902">
        <ele>249</ele>
        <time>2018-05-10T07:58:47Z</time>
      </trkpt>
      <trkpt lat="44.5514" lon="1.75863">
        <ele>248</ele>
        <time>2018-05-10T07:59:08Z</time>
      </trkpt>
      <trkpt lat="44.55134" lon="1.75829">
        <ele>247</ele>
        <time>2018-05-10T07:59:28Z</time>
      </trkpt>
      <trkpt lat="44.55123" lon="1.75793">
        <ele>247</ele>
        <time>2018-05-10T07:59:49Z</time>
      </trkpt>
      <trkpt lat="44.55107" lon="1.75767">
        <ele>247</ele>
        <time>2018-05-10T08:00:10Z</time>
      </trkpt>
      <trkpt lat="44.55108" lon="1.75731">
        <ele>249</ele>
        <time>2018-05-10T08:00:31Z</time>
      </trkpt>
      <trkpt lat="44.55094" lon="1.757">
        <ele>250</ele>
        <time>2018-05-10T08:00:52Z</time>
      </trkpt>
      <trkpt lat="44.55089" lon="1.75667">
        <ele>251</ele>
        <time>2018-05-10T08:01:12Z</time>
      </trkpt>
      <trkpt lat="44.5508" lon="1.75651">
        <ele>252</ele>
        <time>2018-05-10T08:01:33Z</time>
      </trkpt>
      <trkpt lat="44.55075" lon="1.75622">
        <ele>253</ele>
        <time>2018-05-10T08:01:53Z</time>
      </trkpt>
      <trkpt lat="44.55075" lon="1.75589">
        <ele>256</ele>
        <time>2018-05-10T08:02:14Z</time>
      </trkpt>
      <trkpt lat="44.55081" lon="1.75561">
        <ele>257</ele>
        <time>2018-05-10T08:02:35Z</time>
      </trkpt>
      <trkpt lat="44.55068" lon="1.75524">
        <ele>259</ele>
        <time>2018-05-10T08:02:56Z</time>
      </trkpt>
      <trkpt lat="44.55066" lon="1.75495">
        <ele>261</ele>
        <time>2018-05-10T08:03:17Z</time>
      </trkpt>
      <trkpt lat="44.55072" lon="1.75477">
        <ele>262</ele>
        <time>2018-05-10T08:03:38Z</time>
      </trkpt>
      <trkpt lat="44.55059" lon="1.75436">
        <ele>262</ele>
        <time>2018-05-10T08:03:59Z</time>
      </trkpt>
      <trkpt lat="44.55052" lon="1.75404">
        <ele>263</ele>
        <time>2018-05-10T08:04:19Z</time>
      </trkpt>
      <trkpt lat="44.5506" lon="1.75395">
        <ele>263</ele>
        <time>2018-05-10T08:04:40Z</time>
      </trkpt>
      <trkpt lat="44.55058" lon="1.75385">
        <ele>263</ele>
        <time>2018-05-10T08:05:01Z</time>
      </trkpt>
      <trkpt lat="44.55058" lon="1.75385">
        <ele>263</ele>
        <time>2018-05-10T08:05:22Z</time>
      </trkpt>
      <trkpt lat="44.55058" lon="1.75385">
        <ele>263</ele>
        <time>2018-05-10T08:05:43Z</time>
      </trkpt>
      <trkpt lat="44.55058" lon="1.75385">
        <ele>263</ele>
        <time>2018-05-10T08:06:04Z</time>
      </trkpt>
      <trkpt lat="44.55058" lon="1.75384">
        <ele>263</ele>
        <time>2018-05-10T08:06:25Z</time>
      </trkpt>
      <trkpt lat="44.55052" lon="1.75358">
        <ele>263</ele>
        <time>2018-05-10T08:06:46Z</time>
      </trkpt>
      <trkpt lat="44.55039" lon="1.75322">
        <ele>262</ele>
        <time>2018-05-10T08:07:07Z</time>
      </trkpt>
      <trkpt lat="44.55043" lon="1.75293">
        <ele>261</ele>
        <time>2018-05-10T08:07:28Z</time>
      </trkpt>
      <trkpt lat="44.5505" lon="1.7526">
        <ele>261</ele>
        <time>2018-05-10T08:07:48Z</time>
      </trkpt>
      <trkpt lat="44.55053" lon="1.75236">
        <ele>258</ele>
        <time>2018-05-10T08:08:09Z</time>
      </trkpt>
      <trkpt lat="44.55066" lon="1.7521">
        <ele>258</ele>
        <time>2018-05-10T08:08:29Z</time>
      </trkpt>
      <trkpt lat="44.55064" lon="1.75167">
        <ele>257</ele>
        <time>2018-05-10T08:08:50Z</time>
      </trkpt>
      <trkpt lat="44.55059" lon="1.75131">
        <ele>252</ele>
        <time>2018-05-10T08:09:11Z</time>
      </trkpt>
      <trkpt lat="44.55059" lon="1.75107">
        <ele>251</ele>
        <time>2018-05-10T08:09:32Z</time>
      </trkpt>
      <trkpt lat="44.55073" lon="1.75084">
        <ele>251</ele>
        <time>2018-05-10T08:09:53Z</time>
      </trkpt>
      <trkpt lat="44.55072" lon="1.7505">
        <ele>245</ele>
        <time>2018-05-10T08:10:13Z</time>
      </trkpt>
      <trkpt lat="44.55073" lon="1.75022">
        <ele>244</ele>
        <time>2018-05-10T08:10:34Z</time>
      </trkpt>
      <trkpt lat="44.55075" lon="1.74992">
        <ele>238</ele>
        <time>2018-05-10T08:10:55Z</time>
      </trkpt>
      <trkpt lat="44.55075" lon="1.74969">
        <ele>232</ele>
        <time>2018-05-10T08:11:16Z</time>
      </trkpt>
      <trkpt lat="44.55086" lon="1.74954">
        <ele>234</ele>
        <time>2018-05-10T08:11:37Z</time>
      </trkpt>
      <trkpt lat="44.55101" lon="1.74942">
        <ele>233</ele>
        <time>2018-05-10T08:11:57Z</time>
      </trkpt>
      <trkpt lat="44.55113" lon="1.74933">
        <ele>232</ele>
        <time>2018-05-10T08:12:18Z</time>
      </trkpt>
      <trkpt lat="44.55114" lon="1.74923">
        <ele>232</ele>
        <time>2018-05-10T08:12:38Z</time>
      </trkpt>
      <trkpt lat="44.55108" lon="1.74909">
        <ele>216</ele>
        <time>2018-05-10T08:12:59Z</time>
      </trkpt>
      <trkpt lat="44.55104" lon="1.74898">
        <ele>214</ele>
        <time>2018-05-10T08:13:20Z</time>
      </trkpt>
      <trkpt lat="44.55093" lon="1.74887">
        <ele>212</ele>
        <time>2018-05-10T08:13:40Z</time>
      </trkpt>
      <trkpt lat="44.55093" lon="1.74879">
        <ele>210</ele>
        <time>2018-05-10T08:14:00Z</time>
      </trkpt>
      <trkpt lat="44.551" lon="1.74878">
        <ele>210</ele>
        <time>2018-05-10T08:14:21Z</time>
      </trkpt>
      <trkpt lat="44.5511" lon="1.74868">
        <ele>208</ele>
        <time>2018-05-10T08:14:41Z</time>
      </trkpt>
      <trkpt lat="44.55125" lon="1.74858">
        <ele>207</ele>
        <time>2018-05-10T08:15:01Z</time>
      </trkpt>
      <trkpt lat="44.55135" lon="1.74864">
        <ele>208</ele>
        <time>2018-05-10T08:15:21Z</time>
      </trkpt>
      <trkpt lat="44.55148" lon="1.74855">
        <ele>207</ele>
        <time>2018-05-10T08:15:42Z</time>
      </trkpt>
      <trkpt lat="44.55153" lon="1.74839">
        <ele>204</ele>
        <time>2018-05-10T08:16:02Z</time>
      </trkpt>
      <trkpt lat="44.55154" lon="1.74835">
        <ele>204</ele>
        <time>2018-05-10T08:16:23Z</time>
      </trkpt>
      <trkpt lat="44.55149" lon="1.74825">
        <ele>191</ele>
        <time>2018-05-10T08:16:44Z</time>
      </trkpt>
      <trkpt lat="44.5514" lon="1.74817">
        <ele>188</ele>
        <time>2018-05-10T08:17:04Z</time>
      </trkpt>
      <trkpt lat="44.55123" lon="1.74801">
        <ele>185</ele>
        <time>2018-05-10T08:17:25Z</time>
      </trkpt>
      <trkpt lat="44.55114" lon="1.74795">
        <ele>184</ele>
        <time>2018-05-10T08:17:46Z</time>
      </trkpt>
      <trkpt lat="44.55098" lon="1.74784">
        <ele>181</ele>
        <time>2018-05-10T08:18:06Z</time>
      </trkpt>
      <trkpt lat="44.55076" lon="1.74776">
        <ele>176</ele>
        <time>2018-05-10T08:18:27Z</time>
      </trkpt>
      <trkpt lat="44.55062" lon="1.74782">
        <ele>177</ele>
        <time>2018-05-10T08:18:47Z</time>
      </trkpt>
      <trkpt lat="44.55043" lon="1.74792">
        <ele>178</ele>
        <time>2018-05-10T08:19:07Z</time>
      </trkpt>
      <trkpt lat="44.55042" lon="1.74795">
        <ele>178</ele>
        <time>2018-05-10T08:19:28Z</time>
      </trkpt>
      <trkpt lat="44.55042" lon="1.74795">
        <ele>178</ele>
        <time>2018-05-10T08:19:48Z</time>
      </trkpt>
      <trkpt lat="44.55042" lon="1.74795">
        <ele>178</ele>
        <time>2018-05-10T08:20:08Z</time>
      </trkpt>
      <trkpt lat="44.55019" lon="1.74804">
        <ele>179</ele>
        <time>2018-05-10T08:20:29Z</time>
      </trkpt>
      <trkpt lat="44.54997" lon="1.74805">
        <ele>178</ele>
        <time>2018-05-10T08:20:49Z</time>
      </trkpt>
      <trkpt lat="44.54968" lon="1.74794">
        <ele>177</ele>
        <time>2018-05-10T08:21:10Z</time>
      </trkpt>
      <trkpt lat="44.54962" lon="1.74766">
        <ele>177</ele>
        <time>2018-05-10T08:21:31Z</time>
      </trkpt>
      <trkpt lat="44.54975" lon="1.74737">
        <ele>182</ele>
        <time>2018-05-10T08:21:51Z</time>
      </trkpt>
      <trkpt lat="44.5499" lon="1.74718">
        <ele>183</ele>
        <time>2018-05-10T08:22:11Z</time>
      </trkpt>
      <trkpt lat="44.54991" lon="1.7471">
        <ele>184</ele>
        <time>2018-05-10T08:22:32Z</time>
      </trkpt>
      <trkpt lat="44.54969" lon="1.74706">
        <ele>186</ele>
        <time>2018-05-10T08:22:53Z</time>
      </trkpt>
      <trkpt lat="44.54951" lon="1.74703">
        <ele>188</ele>
        <time>2018-05-10T08:23:14Z</time>
      </trkpt>
      <trkpt lat="44.54942" lon="1.74701">
        <ele>190</ele>
        <time>2018-05-10T08:23:35Z</time>
      </trkpt>
      <trkpt lat="44.54945" lon="1.7469">
        <ele>191</ele>
        <time>2018-05-10T08:23:55Z</time>
      </trkpt>
      <trkpt lat="44.54949" lon="1.74674">
        <ele>193</ele>
        <time>2018-05-10T08:24:15Z</time>
      </trkpt>
      <trkpt lat="44.54959" lon="1.74657">
        <ele>201</ele>
        <time>2018-05-10T08:24:36Z</time>
      </trkpt>
      <trkpt lat="44.54971" lon="1.74635">
        <ele>200</ele>
        <time>2018-05-10T08:24:57Z</time>
      </trkpt>
      <trkpt lat="44.54971" lon="1.74635">
        <ele>200</ele>
        <time>2018-05-10T08:25:18Z</time>
      </trkpt>
      <trkpt lat="44.54971" lon="1.74635">
        <ele>200</ele>
        <time>2018-05-10T08:25:38Z</time>
      </trkpt>
      <trkpt lat="44.54971" lon="1.74635">
        <ele>200</ele>
        <time>2018-05-10T08:25:58Z</time>
      </trkpt>
      <trkpt lat="44.5497" lon="1.74618">
        <ele>202</ele>
        <time>2018-05-10T08:26:18Z</time>
      </trkpt>
      <trkpt lat="44.54971" lon="1.74591">
        <ele>202</ele>
        <time>2018-05-10T08:26:39Z</time>
      </trkpt>
      <trkpt lat="44.54971" lon="1.74566">
        <ele>210</ele>
        <time>2018-05-10T08:27:00Z</time>
      </trkpt>
      <trkpt lat="44.5497" lon="1.74542">
        <ele>213</ele>
        <time>2018-05-10T08:27:20Z</time>
      </trkpt>
      <trkpt lat="44.54977" lon="1.74519">
        <ele>213</ele>
        <time>2018-05-10T08:27:40Z</time>
      </trkpt>
      <trkpt lat="44.54984" lon="1.74492">
        <ele>217</ele>
        <time>2018-05-10T08:28:01Z</time>
      </trkpt>
      <trkpt lat="44.54967" lon="1.74508">
        <ele>215</ele>
        <time>2018-05-10T08:28:22Z</time>
      </trkpt>
      <trkpt lat="44.54955" lon="1.74521">
        <ele>216</ele>
        <time>2018-05-10T08:28:43Z</time>
      </trkpt>
      <trkpt lat="44.54939" lon="1.74534">
        <ele>218</ele>
        <time>2018-05-10T08:29:03Z</time>
      </trkpt>
      <trkpt lat="44.5492" lon="1.74541">
        <ele>219</ele>
        <time>2018-05-10T08:29:23Z</time>
      </trkpt>
      <trkpt lat="44.54902" lon="1.74541">
        <ele>230</ele>
        <time>2018-05-10T08:29:44Z</time>
      </trkpt>
      <trkpt lat="44.54886" lon="1.74526">
        <ele>232</ele>
        <time>2018-05-10T08:30:04Z</time>
      </trkpt>
      <trkpt lat="44.54873" lon="1.74507">
        <ele>233</ele>
        <time>2018-05-10T08:30:25Z</time>
      </trkpt>
      <trkpt lat="44.54853" lon="1.74489">
        <ele>240</ele>
        <time>2018-05-10T08:30:45Z</time>
      </trkpt>
      <trkpt lat="44.54842" lon="1.7447">
        <ele>241</ele>
        <time>2018-05-10T08:31:05Z</time>
      </trkpt>
      <trkpt lat="44.54832" lon="1.74455">
        <ele>249</ele>
        <time>2018-05-10T08:31:26Z</time>
      </trkpt>
      <trkpt lat="44.54817" lon="1.74445">
        <ele>250</ele>
        <time>2018-05-10T08:31:47Z</time>
      </trkpt>
      <trkpt lat="44.54806" lon="1.74432">
        <ele>251</ele>
        <time>2018-05-10T08:32:07Z</time>
      </trkpt>
      <trkpt lat="44.5481" lon="1.74412">
        <ele>256</ele>
        <time>2018-05-10T08:32:28Z</time>
      </trkpt>
      <trkpt lat="44.54815" lon="1.74385">
        <ele>258</ele>
        <time>2018-05-10T08:32:48Z</time>
      </trkpt>
      <trkpt lat="44.54812" lon="1.74364">
        <ele>259</ele>
        <time>2018-05-10T08:33:09Z</time>
      </trkpt>
      <trkpt lat="44.54802" lon="1.74358">
        <ele>260</ele>
        <time>2018-05-10T08:33:29Z</time>
      </trkpt>
      <trkpt lat="44.54779" lon="1.7435">
        <ele>262</ele>
        <time>2018-05-10T08:33:50Z</time>
      </trkpt>
      <trkpt lat="44.54763" lon="1.74337">
        <ele>264</ele>
        <time>2018-05-10T08:34:10Z</time>
      </trkpt>
      <trkpt lat="44.54753" lon="1.74319">
        <ele>268</ele>
        <time>2018-05-10T08:34:30Z</time>
      </trkpt>
      <trkpt lat="44.54742" lon="1.74297">
        <ele>274</ele>
        <time>2018-05-10T08:34:51Z</time>
      </trkpt>
      <trkpt lat="44.54734" lon="1.74272">
        <ele>276</ele>
        <time>2018-05-10T08:35:11Z</time>
      </trkpt>
      <trkpt lat="44.54726" lon="1.74249">
        <ele>279</ele>
        <time>2018-05-10T08:35:32Z</time>
      </trkpt>
      <trkpt lat="44.54715" lon="1.74225">
        <ele>281</ele>
        <time>2018-05-10T08:35:53Z</time>
      </trkpt>
      <trkpt lat="44.54708" lon="1.74198">
        <ele>282</ele>
        <time>2018-05-10T08:36:13Z</time>
      </trkpt>
      <trkpt lat="44.54694" lon="1.74176">
        <ele>283</ele>
        <time>2018-05-10T08:36:34Z</time>
      </trkpt>
      <trkpt lat="44.54704" lon="1.74164">
        <ele>286</ele>
        <time>2018-05-10T08:36:55Z</time>
      </trkpt>
      <trkpt lat="44.54717" lon="1.7414">
        <ele>286</ele>
        <time>2018-05-10T08:37:15Z</time>
      </trkpt>
      <trkpt lat="44.5473" lon="1.74113">
        <ele>287</ele>
        <time>2018-05-10T08:37:36Z</time>
      </trkpt>
      <trkpt lat="44.54727" lon="1.74088">
        <ele>287</ele>
        <time>2018-05-10T08:37:56Z</time>
      </trkpt>
      <trkpt lat="44.54716" lon="1.74065">
        <ele>290</ele>
        <time>2018-05-10T08:38:17Z</time>
      </trkpt>
      <trkpt lat="44.54704" lon="1.74042">
        <ele>291</ele>
        <time>2018-05-10T08:38:38Z</time>
      </trkpt>
      <trkpt lat="44.54684" lon="1.74013">
        <ele>292</ele>
        <time>2018-05-10T08:38:58Z</time>
      </trkpt>
      <trkpt lat="44.54664" lon="1.7399">
        <ele>293</ele>
        <time>2018-05-10T08:39:18Z</time>
      </trkpt>
      <trkpt lat="44.54648" lon="1.73968">
        <ele>292</ele>
        <time>2018-05-10T08:39:39Z</time>
      </trkpt>
      <trkpt lat="44.54622" lon="1.73953">
        <ele>292</ele>
        <time>2018-05-10T08:40:00Z</time>
      </trkpt>
      <trkpt lat="44.54605" lon="1.73936">
        <ele>291</ele>
        <time>2018-05-10T08:40:21Z</time>
      </trkpt>
      <trkpt lat="44.54583" lon="1.73914">
        <ele>290</ele>
        <time>2018-05-10T08:40:41Z</time>
      </trkpt>
      <trkpt lat="44.54569" lon="1.739">
        <ele>289</ele>
        <time>2018-05-10T08:41:02Z</time>
      </trkpt>
      <trkpt lat="44.54548" lon="1.7389">
        <ele>289</ele>
        <time>2018-05-10T08:41:23Z</time>
      </trkpt>
      <trkpt lat="44.54529" lon="1.73879">
        <ele>288</ele>
        <time>2018-05-10T08:41:44Z</time>
      </trkpt>
      <trkpt lat="44.54504" lon="1.73876">
        <ele>288</ele>
        <time>2018-05-10T08:42:05Z</time>
      </trkpt>
      <trkpt lat="44.54484" lon="1.7387">
        <ele>285</ele>
        <time>2018-05-10T08:42:25Z</time>
      </trkpt>
      <trkpt lat="44.54459" lon="1.7386">
        <ele>285</ele>
        <time>2018-05-10T08:42:46Z</time>
      </trkpt>
      <trkpt lat="44.54444" lon="1.73835">
        <ele>285</ele>
        <time>2018-05-10T08:43:07Z</time>
      </trkpt>
      <trkpt lat="44.5443" lon="1.73816">
        <ele>284</ele>
        <time>2018-05-10T08:43:28Z</time>
      </trkpt>
      <trkpt lat="44.54406" lon="1.73814">
        <ele>282</ele>
        <time>2018-05-10T08:43:48Z</time>
      </trkpt>
      <trkpt lat="44.54392" lon="1.73815">
        <ele>281</ele>
        <time>2018-05-10T08:44:09Z</time>
      </trkpt>
      <trkpt lat="44.54377" lon="1.73782">
        <ele>280</ele>
        <time>2018-05-10T08:44:29Z</time>
      </trkpt>
      <trkpt lat="44.54377" lon="1.73756">
        <ele>279</ele>
        <time>2018-05-10T08:44:50Z</time>
      </trkpt>
      <trkpt lat="44.54374" lon="1.73727">
        <ele>275</ele>
        <time>2018-05-10T08:45:11Z</time>
      </trkpt>
      <trkpt lat="44.54372" lon="1.73686">
        <ele>274</ele>
        <time>2018-05-10T08:45:32Z</time>
      </trkpt>
      <trkpt lat="44.54371" lon="1.73655">
        <ele>268</ele>
        <time>2018-05-10T08:45:52Z</time>
      </trkpt>
      <trkpt lat="44.54351" lon="1.73639">
        <ele>267</ele>
        <time>2018-05-10T08:46:12Z</time>
      </trkpt>
      <trkpt lat="44.54336" lon="1.73657">
        <ele>269</ele>
        <time>2018-05-10T08:46:32Z</time>
      </trkpt>
      <trkpt lat="44.54315" lon="1.73679">
        <ele>270</ele>
        <time>2018-05-10T08:46:53Z</time>
      </trkpt>
      <trkpt lat="44.54292" lon="1.73692">
        <ele>269</ele>
        <time>2018-05-10T08:47:13Z</time>
      </trkpt>
      <trkpt lat="44.54269" lon="1.73697">
        <ele>269</ele>
        <time>2018-05-10T08:47:34Z</time>
      </trkpt>
      <trkpt lat="44.54252" lon="1.73702">
        <ele>269</ele>
        <time>2018-05-10T08:47:55Z</time>
      </trkpt>
      <trkpt lat="44.54224" lon="1.73706">
        <ele>265</ele>
        <time>2018-05-10T08:48:16Z</time>
      </trkpt>
      <trkpt lat="44.54197" lon="1.73714">
        <ele>265</ele>
        <time>2018-05-10T08:48:36Z</time>
      </trkpt>
      <trkpt lat="44.54173" lon="1.73737">
        <ele>264</ele>
        <time>2018-05-10T08:48:57Z</time>
      </trkpt>
      <trkpt lat="44.54148" lon="1.73755">
        <ele>264</ele>
        <time>2018-05-10T08:49:17Z</time>
      </trkpt>
      <trkpt lat="44.54127" lon="1.73769">
        <ele>264</ele>
        <time>2018-05-10T08:49:38Z</time>
      </trkpt>
      <trkpt lat="44.54103" lon="1.73777">
        <ele>263</ele>
        <time>2018-05-10T08:49:58Z</time>
      </trkpt>
      <trkpt lat="44.54077" lon="1.73791">
        <ele>265</ele>
        <time>2018-05-10T08:50:19Z</time>
      </trkpt>
      <trkpt lat="44.54051" lon="1.73809">
        <ele>266</ele>
        <time>2018-05-10T08:50:40Z</time>
      </trkpt>
      <trkpt lat="44.54037" lon="1.73801">
        <ele>267</ele>
        <time>2018-05-10T08:51:00Z</time>
      </trkpt>
      <trkpt lat="44.54043" lon="1.73775">
        <ele>267</ele>
        <time>2018-05-10T08:51:20Z</time>
      </trkpt>
      <trkpt lat="44.54043" lon="1.73741">
        <ele>266</ele>
        <time>2018-05-10T08:51:41Z</time>
      </trkpt>
      <trkpt lat="44.54041" lon="1.73713">
        <ele>266</ele>
        <time>2018-05-10T08:52:02Z</time>
      </trkpt>
      <trkpt lat="44.5404" lon="1.73673">
        <ele>265</ele>
        <time>2018-05-10T08:52:23Z</time>
      </trkpt>
      <trkpt lat="44.54041" lon="1.7364">
        <ele>262</ele>
        <time>2018-05-10T08:52:44Z</time>
      </trkpt>
      <trkpt lat="44.54034" lon="1.73613">
        <ele>261</ele>
        <time>2018-05-10T08:53:05Z</time>
      </trkpt>
      <trkpt lat="44.54014" lon="1.73584">
        <ele>261</ele>
        <time>2018-05-10T08:53:26Z</time>
      </trkpt>
      <trkpt lat="44.54" lon="1.73553">
        <ele>258</ele>
        <time>2018-05-10T08:53:47Z</time>
      </trkpt>
      <trkpt lat="44.53991" lon="1.73527">
        <ele>255</ele>
        <time>2018-05-10T08:54:07Z</time>
      </trkpt>
      <trkpt lat="44.53991" lon="1.73504">
        <ele>253</ele>
        <time>2018-05-10T08:54:28Z</time>
      </trkpt>
      <trkpt lat="44.53991" lon="1.73476">
        <ele>247</ele>
        <time>2018-05-10T08:54:48Z</time>
      </trkpt>
      <trkpt lat="44.53997" lon="1.73451">
        <ele>244</ele>
        <time>2018-05-10T08:55:08Z</time>
      </trkpt>
      <trkpt lat="44.54004" lon="1.73421">
        <ele>240</ele>
        <time>2018-05-10T08:55:29Z</time>
      </trkpt>
      <trkpt lat="44.54006" lon="1.73395">
        <ele>234</ele>
        <time>2018-05-10T08:55:50Z</time>
      </trkpt>
      <trkpt lat="44.5401" lon="1.73371">
        <ele>231</ele>
        <time>2018-05-10T08:56:10Z</time>
      </trkpt>
      <trkpt lat="44.54032" lon="1.73359">
        <ele>230</ele>
        <time>2018-05-10T08:56:30Z</time>
      </trkpt>
      <trkpt lat="44.54056" lon="1.73362">
        <ele>230</ele>
        <time>2018-05-10T08:56:51Z</time>
      </trkpt>
      <trkpt lat="44.54081" lon="1.73364">
        <ele>230</ele>
        <time>2018-05-10T08:57:12Z</time>
      </trkpt>
      <trkpt lat="44.54103" lon="1.73366">
        <ele>230</ele>
        <time>2018-05-10T08:57:32Z</time>
      </trkpt>
      <trkpt lat="44.54125" lon="1.73369">
        <ele>230</ele>
        <time>2018-05-10T08:57:52Z</time>
      </trkpt>
      <trkpt lat="44.54127" lon="1.73328">
        <ele>229</ele>
        <time>2018-05-10T08:58:13Z</time>
      </trkpt>
      <trkpt lat="44.54113" lon="1.73302">
        <ele>229</ele>
        <time>2018-05-10T08:58:33Z</time>
      </trkpt>
      <trkpt lat="44.54093" lon="1.73275">
        <ele>229</ele>
        <time>2018-05-10T08:58:54Z</time>
      </trkpt>
      <trkpt lat="44.54074" lon="1.73246">
        <ele>228</ele>
        <time>2018-05-10T08:59:15Z</time>
      </trkpt>
      <trkpt lat="44.54064" lon="1.73215">
        <ele>228</ele>
        <time>2018-05-10T08:59:36Z</time>
      </trkpt>
      <trkpt lat="44.54062" lon="1.73174">
        <ele>231</ele>
        <time>2018-05-10T08:59:56Z</time>
      </trkpt>
      <trkpt lat="44.54048" lon="1.73162">
        <ele>235</ele>
        <time>2018-05-10T09:00:17Z</time>
      </trkpt>
      <trkpt lat="44.54029" lon="1.73159">
        <ele>235</ele>
        <time>2018-05-10T09:00:38Z</time>
      </trkpt>
      <trkpt lat="44.54002" lon="1.73158">
        <ele>231</ele>
        <time>2018-05-10T09:00:58Z</time>
      </trkpt>
      <trkpt lat="44.53975" lon="1.73153">
        <ele>231</ele>
        <time>2018-05-10T09:01:19Z</time>
      </trkpt>
      <trkpt lat="44.5395" lon="1.73143">
        <ele>230</ele>
        <time>2018-05-10T09:01:40Z</time>
      </trkpt>
      <trkpt lat="44.53929" lon="1.73124">
        <ele>231</ele>
        <time>2018-05-10T09:02:00Z</time>
      </trkpt>
      <trkpt lat="44.53906" lon="1.73104">
        <ele>229</ele>
        <time>2018-05-10T09:02:21Z</time>
      </trkpt>
      <trkpt lat="44.53889" lon="1.73083">
        <ele>229</ele>
        <time>2018-05-10T09:02:41Z</time>
      </trkpt>
      <trkpt lat="44.53866" lon="1.73067">
        <ele>232</ele>
        <time>2018-05-10T09:03:02Z</time>
      </trkpt>
      <trkpt lat="44.5384" lon="1.73087">
        <ele>228</ele>
        <time>2018-05-10T09:03:22Z</time>
      </trkpt>
      <trkpt lat="44.53813" lon="1.73118">
        <ele>228</ele>
        <time>2018-05-10T09:03:42Z</time>
      </trkpt>
      <trkpt lat="44.53791" lon="1.73133">
        <ele>228</ele>
        <time>2018-05-10T09:04:03Z</time>
      </trkpt>
      <trkpt lat="44.53769" lon="1.73148">
        <ele>228</ele>
        <time>2018-05-10T09:04:23Z</time>
      </trkpt>
      <trkpt lat="44.53751" lon="1.7315">
        <ele>229</ele>
        <time>2018-05-10T09:04:44Z</time>
      </trkpt>
      <trkpt lat="44.53745" lon="1.7315">
        <ele>231</ele>
        <time>2018-05-10T09:05:05Z</time>
      </trkpt>
      <trkpt lat="44.53744" lon="1.73151">
        <ele>231</ele>
        <time>2018-05-10T09:05:26Z</time>
      </trkpt>
      <trkpt lat="44.53744" lon="1.73151">
        <ele>231</ele>
        <time>2018-05-10T09:05:46Z</time>
      </trkpt>
      <trkpt lat="44.53741" lon="1.73149">
        <ele>231</ele>
        <time>2018-05-10T09:06:07Z</time>
      </trkpt>
      <trkpt lat="44.53719" lon="1.73133">
        <ele>233</ele>
        <time>2018-05-10T09:06:27Z</time>
      </trkpt>
      <trkpt lat="44.53712" lon="1.73115">
        <ele>234</ele>
        <time>2018-05-10T09:06:48Z</time>
      </trkpt>
      <trkpt lat="44.53699" lon="1.73088">
        <ele>235</ele>
        <time>2018-05-10T09:07:09Z</time>
      </trkpt>
      <trkpt lat="44.53691" lon="1.73064">
        <ele>240</ele>
        <time>2018-05-10T09:07:30Z</time>
      </trkpt>
      <trkpt lat="44.53681" lon="1.73033">
        <ele>242</ele>
        <time>2018-05-10T09:07:51Z</time>
      </trkpt>
      <trkpt lat="44.53668" lon="1.73009">
        <ele>246</ele>
        <time>2018-05-10T09:08:12Z</time>
      </trkpt>
      <trkpt lat="44.53651" lon="1.72994">
        <ele>252</ele>
        <time>2018-05-10T09:08:32Z</time>
      </trkpt>
      <trkpt lat="44.53636" lon="1.7297">
        <ele>254</ele>
        <time>2018-05-10T09:08:53Z</time>
      </trkpt>
      <trkpt lat="44.53627" lon="1.72939">
        <ele>256</ele>
        <time>2018-05-10T09:09:13Z</time>
      </trkpt>
      <trkpt lat="44.53612" lon="1.7291">
        <ele>263</ele>
        <time>2018-05-10T09:09:34Z</time>
      </trkpt>
      <trkpt lat="44.53595" lon="1.72881">
        <ele>265</ele>
        <time>2018-05-10T09:09:55Z</time>
      </trkpt>
      <trkpt lat="44.53579" lon="1.72859">
        <ele>270</ele>
        <time>2018-05-10T09:10:16Z</time>
      </trkpt>
      <trkpt lat="44.53556" lon="1.72858">
        <ele>270</ele>
        <time>2018-05-10T09:10:37Z</time>
      </trkpt>
      <trkpt lat="44.53532" lon="1.72857">
        <ele>270</ele>
        <time>2018-05-10T09:10:57Z</time>
      </trkpt>
      <trkpt lat="44.53515" lon="1.72843">
        <ele>272</ele>
        <time>2018-05-10T09:11:18Z</time>
      </trkpt>
      <trkpt lat="44.53531" lon="1.7282">
        <ele>276</ele>
        <time>2018-05-10T09:11:38Z</time>
      </trkpt>
      <trkpt lat="44.53545" lon="1.72804">
        <ele>276</ele>
        <time>2018-05-10T09:11:58Z</time>
      </trkpt>
      <trkpt lat="44.53566" lon="1.72788">
        <ele>277</ele>
        <time>2018-05-10T09:12:19Z</time>
      </trkpt>
      <trkpt lat="44.53576" lon="1.72755">
        <ele>279</ele>
        <time>2018-05-10T09:12:40Z</time>
      </trkpt>
      <trkpt lat="44.53559" lon="1.7272">
        <ele>285</ele>
        <time>2018-05-10T09:13:01Z</time>
      </trkpt>
      <trkpt lat="44.53542" lon="1.72691">
        <ele>287</ele>
        <time>2018-05-10T09:13:21Z</time>
      </trkpt>
      <trkpt lat="44.53519" lon="1.72668">
        <ele>289</ele>
        <time>2018-05-10T09:13:42Z</time>
      </trkpt>
      <trkpt lat="44.53497" lon="1.72655">
        <ele>291</ele>
        <time>2018-05-10T09:14:03Z</time>
      </trkpt>
      <trkpt lat="44.53479" lon="1.72638">
        <ele>291</ele>
        <time>2018-05-10T09:14:23Z</time>
      </trkpt>
      <trkpt lat="44.53474" lon="1.72608">
        <ele>291</ele>
        <time>2018-05-10T09:14:44Z</time>
      </trkpt>
      <trkpt lat="44.53479" lon="1.72572">
        <ele>293</ele>
        <time>2018-05-10T09:15:05Z</time>
      </trkpt>
      <trkpt lat="44.53479" lon="1.72529">
        <ele>293</ele>
        <time>2018-05-10T09:15:26Z</time>
      </trkpt>
      <trkpt lat="44.53476" lon="1.72495">
        <ele>295</ele>
        <time>2018-05-10T09:15:47Z</time>
      </trkpt>
      <trkpt lat="44.53476" lon="1.72463">
        <ele>295</ele>
        <time>2018-05-10T09:16:07Z</time>
      </trkpt>
      <trkpt lat="44.53475" lon="1.72418">
        <ele>295</ele>
        <time>2018-05-10T09:16:28Z</time>
      </trkpt>
      <trkpt lat="44.53469" lon="1.7238">
        <ele>296</ele>
        <time>2018-05-10T09:16:48Z</time>
      </trkpt>
      <trkpt lat="44.53448" lon="1.72342">
        <ele>296</ele>
        <time>2018-05-10T09:17:09Z</time>
      </trkpt>
      <trkpt lat="44.53448" lon="1.72314">
        <ele>295</ele>
        <time>2018-05-10T09:17:30Z</time>
      </trkpt>
      <trkpt lat="44.53435" lon="1.72296">
        <ele>294</ele>
        <time>2018-05-10T09:17:50Z</time>
      </trkpt>
      <trkpt lat="44.53413" lon="1.72291">
        <ele>293</ele>
        <time>2018-05-10T09:18:11Z</time>
      </trkpt>
      <trkpt lat="44.5339" lon="1.72284">
        <ele>292</ele>
        <time>2018-05-10T09:18:31Z</time>
      </trkpt>
      <trkpt lat="44.53369" lon="1.72274">
        <ele>292</ele>
        <time>2018-05-10T09:18:52Z</time>
      </trkpt>
      <trkpt lat="44.53343" lon="1.72263">
        <ele>292</ele>
        <time>2018-05-10T09:19:13Z</time>
      </trkpt>
      <trkpt lat="44.53316" lon="1.72257">
        <ele>290</ele>
        <time>2018-05-10T09:19:33Z</time>
      </trkpt>
      <trkpt lat="44.53288" lon="1.72246">
        <ele>288</ele>
        <time>2018-05-10T09:19:54Z</time>
      </trkpt>
      <trkpt lat="44.53266" lon="1.72238">
        <ele>287</ele>
        <time>2018-05-10T09:20:15Z</time>
      </trkpt>
      <trkpt lat="44.53237" lon="1.72227">
        <ele>286</ele>
        <time>2018-05-10T09:20:36Z</time>
      </trkpt>
      <trkpt lat="44.53212" lon="1.72222">
        <ele>286</ele>
        <time>2018-05-10T09:20:56Z</time>
      </trkpt>
      <trkpt lat="44.53186" lon="1.72218">
        <ele>286</ele>
        <time>2018-05-10T09:21:17Z</time>
      </trkpt>
      <trkpt lat="44.5316" lon="1.72219">
        <ele>286</ele>
        <time>2018-05-10T09:21:37Z</time>
      </trkpt>
      <trkpt lat="44.53131" lon="1.72218">
        <ele>286</ele>
        <time>2018-05-10T09:21:58Z</time>
      </trkpt>
      <trkpt lat="44.53106" lon="1.72222">
        <ele>286</ele>
        <time>2018-05-10T09:22:19Z</time>
      </trkpt>
      <trkpt lat="44.53081" lon="1.72226">
        <ele>286</ele>
        <time>2018-05-10T09:22:39Z</time>
      </trkpt>
      <trkpt lat="44.5305" lon="1.72234">
        <ele>286</ele>
        <time>2018-05-10T09:23:00Z</time>
      </trkpt>
      <trkpt lat="44.53028" lon="1.72257">
        <ele>287</ele>
        <time>2018-05-10T09:23:20Z</time>
      </trkpt>
      <trkpt lat="44.53004" lon="1.72282">
        <ele>287</ele>
        <time>2018-05-10T09:23:41Z</time>
      </trkpt>
      <trkpt lat="44.52984" lon="1.72275">
        <ele>288</ele>
        <time>2018-05-10T09:24:02Z</time>
      </trkpt>
      <trkpt lat="44.52969" lon="1.72275">
        <ele>288</ele>
        <time>2018-05-10T09:24:22Z</time>
      </trkpt>
      <trkpt lat="44.52968" lon="1.72277">
        <ele>288</ele>
        <time>2018-05-10T09:24:42Z</time>
      </trkpt>
      <trkpt lat="44.52951" lon="1.72291">
        <ele>288</ele>
        <time>2018-05-10T09:25:03Z</time>
      </trkpt>
      <trkpt lat="44.52925" lon="1.7231">
        <ele>289</ele>
        <time>2018-05-10T09:25:24Z</time>
      </trkpt>
      <trkpt lat="44.52901" lon="1.72317">
        <ele>290</ele>
        <time>2018-05-10T09:25:45Z</time>
      </trkpt>
      <trkpt lat="44.52874" lon="1.72329">
        <ele>290</ele>
        <time>2018-05-10T09:26:05Z</time>
      </trkpt>
      <trkpt lat="44.52849" lon="1.72342">
        <ele>293</ele>
        <time>2018-05-10T09:26:26Z</time>
      </trkpt>
      <trkpt lat="44.52836" lon="1.72358">
        <ele>293</ele>
        <time>2018-05-10T09:26:47Z</time>
      </trkpt>
      <trkpt lat="44.52831" lon="1.72345">
        <ele>292</ele>
        <time>2018-05-10T09:27:08Z</time>
      </trkpt>
      <trkpt lat="44.52808" lon="1.72339">
        <ele>292</ele>
        <time>2018-05-10T09:27:28Z</time>
      </trkpt>
      <trkpt lat="44.5278" lon="1.72328">
        <ele>290</ele>
        <time>2018-05-10T09:27:49Z</time>
      </trkpt>
      <trkpt lat="44.52759" lon="1.72323">
        <ele>291</ele>
        <time>2018-05-10T09:28:09Z</time>
      </trkpt>
      <trkpt lat="44.52735" lon="1.72324">
        <ele>291</ele>
        <time>2018-05-10T09:28:30Z</time>
      </trkpt>
      <trkpt lat="44.52709" lon="1.7232">
        <ele>291</ele>
        <time>2018-05-10T09:28:51Z</time>
      </trkpt>
      <trkpt lat="44.52681" lon="1.72319">
        <ele>291</ele>
        <time>2018-05-10T09:29:12Z</time>
      </trkpt>
      <trkpt lat="44.52656" lon="1.72321">
        <ele>292</ele>
        <time>2018-05-10T09:29:32Z</time>
      </trkpt>
      <trkpt lat="44.52632" lon="1.72327">
        <ele>292</ele>
        <time>2018-05-10T09:29:53Z</time>
      </trkpt>
      <trkpt lat="44.52605" lon="1.72329">
        <ele>292</ele>
        <time>2018-05-10T09:30:14Z</time>
      </trkpt>
      <trkpt lat="44.5258" lon="1.72332">
        <ele>294</ele>
        <time>2018-05-10T09:30:35Z</time>
      </trkpt>
      <trkpt lat="44.52564" lon="1.72348">
        <ele>293</ele>
        <time>2018-05-10T09:30:56Z</time>
      </trkpt>
      <trkpt lat="44.52542" lon="1.72348">
        <ele>292</ele>
        <time>2018-05-10T09:31:16Z</time>
      </trkpt>
      <trkpt lat="44.52531" lon="1.72353">
        <ele>292</ele>
        <time>2018-05-10T09:31:37Z</time>
      </trkpt>
      <trkpt lat="44.52504" lon="1.7237">
        <ele>292</ele>
        <time>2018-05-10T09:31:58Z</time>
      </trkpt>
      <trkpt lat="44.5248" lon="1.72372">
        <ele>288</ele>
        <time>2018-05-10T09:32:19Z</time>
      </trkpt>
      <trkpt lat="44.52456" lon="1.72371">
        <ele>287</ele>
        <time>2018-05-10T09:32:40Z</time>
      </trkpt>
      <trkpt lat="44.52432" lon="1.72374">
        <ele>286</ele>
        <time>2018-05-10T09:33:00Z</time>
      </trkpt>
      <trkpt lat="44.52414" lon="1.72366">
        <ele>283</ele>
        <time>2018-05-10T09:33:21Z</time>
      </trkpt>
      <trkpt lat="44.52389" lon="1.72368">
        <ele>282</ele>
        <time>2018-05-10T09:33:41Z</time>
      </trkpt>
      <trkpt lat="44.52368" lon="1.72368">
        <ele>282</ele>
        <time>2018-05-10T09:34:01Z</time>
      </trkpt>
      <trkpt lat="44.52348" lon="1.72362">
        <ele>282</ele>
        <time>2018-05-10T09:34:22Z</time>
      </trkpt>
      <trkpt lat="44.52328" lon="1.72366">
        <ele>279</ele>
        <time>2018-05-10T09:34:43Z</time>
      </trkpt>
      <trkpt lat="44.52311" lon="1.72375">
        <ele>278</ele>
        <time>2018-05-10T09:35:03Z</time>
      </trkpt>
      <trkpt lat="44.52291" lon="1.7238">
        <ele>277</ele>
        <time>2018-05-10T09:35:24Z</time>
      </trkpt>
      <trkpt lat="44.52267" lon="1.72376">
        <ele>277</ele>
        <time>2018-05-10T09:35:44Z</time>
      </trkpt>
      <trkpt lat="44.52244" lon="1.72375">
        <ele>274</ele>
        <time>2018-05-10T09:36:05Z</time>
      </trkpt>
      <trkpt lat="44.5222" lon="1.72388">
        <ele>272</ele>
        <time>2018-05-10T09:36:26Z</time>
      </trkpt>
      <trkpt lat="44.522" lon="1.72385">
        <ele>272</ele>
        <time>2018-05-10T09:36:47Z</time>
      </trkpt>
      <trkpt lat="44.52181" lon="1.72375">
        <ele>273</ele>
        <time>2018-05-10T09:37:07Z</time>
      </trkpt>
      <trkpt lat="44.52158" lon="1.7236">
        <ele>271</ele>
        <time>2018-05-10T09:37:28Z</time>
      </trkpt>
      <trkpt lat="44.52149" lon="1.72357">
        <ele>270</ele>
        <time>2018-05-10T09:37:49Z</time>
      </trkpt>
      <trkpt lat="44.52124" lon="1.72352">
        <ele>268</ele>
        <time>2018-05-10T09:38:09Z</time>
      </trkpt>
      <trkpt lat="44.52097" lon="1.72355">
        <ele>268</ele>
        <time>2018-05-10T09:38:29Z</time>
      </trkpt>
      <trkpt lat="44.52073" lon="1.72359">
        <ele>259</ele>
        <time>2018-05-10T09:38:49Z</time>
      </trkpt>
      <trkpt lat="44.52055" lon="1.7236">
        <ele>256</ele>
        <time>2018-05-10T09:39:10Z</time>
      </trkpt>
      <trkpt lat="44.5203" lon="1.72365">
        <ele>253</ele>
        <time>2018-05-10T09:39:30Z</time>
      </trkpt>
      <trkpt lat="44.52014" lon="1.72355">
        <ele>254</ele>
        <time>2018-05-10T09:39:51Z</time>
      </trkpt>
      <trkpt lat="44.51992" lon="1.72352">
        <ele>244</ele>
        <time>2018-05-10T09:40:12Z</time>
      </trkpt>
      <trkpt lat="44.5198" lon="1.72354">
        <ele>241</ele>
        <time>2018-05-10T09:40:33Z</time>
      </trkpt>
      <trkpt lat="44.51964" lon="1.72352">
        <ele>238</ele>
        <time>2018-05-10T09:40:54Z</time>
      </trkpt>
      <trkpt lat="44.51947" lon="1.72336">
        <ele>236</ele>
        <time>2018-05-10T09:41:14Z</time>
      </trkpt>
      <trkpt lat="44.51923" lon="1.72329">
        <ele>238</ele>
        <time>2018-05-10T09:41:34Z</time>
      </trkpt>
      <trkpt lat="44.51908" lon="1.72316">
        <ele>231</ele>
        <time>2018-05-10T09:41:55Z</time>
      </trkpt>
      <trkpt lat="44.51886" lon="1.7231">
        <ele>229</ele>
        <time>2018-05-10T09:42:16Z</time>
      </trkpt>
      <trkpt lat="44.5187" lon="1.72299">
        <ele>228</ele>
        <time>2018-05-10T09:42:36Z</time>
      </trkpt>
      <trkpt lat="44.51856" lon="1.72283">
        <ele>227</ele>
        <time>2018-05-10T09:42:56Z</time>
      </trkpt>
      <trkpt lat="44.51842" lon="1.72279">
        <ele>226</ele>
        <time>2018-05-10T09:43:17Z</time>
      </trkpt>
      <trkpt lat="44.51819" lon="1.72257">
        <ele>214</ele>
        <time>2018-05-10T09:43:38Z</time>
      </trkpt>
      <trkpt lat="44.51808" lon="1.72237">
        <ele>209</ele>
        <time>2018-05-10T09:43:58Z</time>
      </trkpt>
      <trkpt lat="44.51805" lon="1.72214">
        <ele>206</ele>
        <time>2018-05-10T09:44:19Z</time>
      </trkpt>
      <trkpt lat="44.51809" lon="1.72189">
        <ele>204</ele>
        <time>2018-05-10T09:44:40Z</time>
      </trkpt>
      <trkpt lat="44.51811" lon="1.7218">
        <ele>204</ele>
        <time>2018-05-10T09:45:00Z</time>
      </trkpt>
      <trkpt lat="44.51807" lon="1.72161">
        <ele>194</ele>
        <time>2018-05-10T09:45:21Z</time>
      </trkpt>
      <trkpt lat="44.51815" lon="1.72158">
        <ele>196</ele>
        <time>2018-05-10T09:45:42Z</time>
      </trkpt>
      <trkpt lat="44.51814" lon="1.72155">
        <ele>195</ele>
        <time>2018-05-10T09:46:03Z</time>
      </trkpt>
      <trkpt lat="44.51814" lon="1.72155">
        <ele>195</ele>
        <time>2018-05-10T09:46:24Z</time>
      </trkpt>
      <trkpt lat="44.51816" lon="1.72153">
        <ele>195</ele>
        <time>2018-05-10T09:46:44Z</time>
      </trkpt>
      <trkpt lat="44.51835" lon="1.72138">
        <ele>203</ele>
        <time>2018-05-10T09:47:04Z</time>
      </trkpt>
      <trkpt lat="44.51858" lon="1.72125">
        <ele>202</ele>
        <time>2018-05-10T09:47:25Z</time>
      </trkpt>
      <trkpt lat="44.51866" lon="1.72117">
        <ele>201</ele>
        <time>2018-05-10T09:47:45Z</time>
      </trkpt>
      <trkpt lat="44.51884" lon="1.72104">
        <ele>201</ele>
        <time>2018-05-10T09:48:05Z</time>
      </trkpt>
      <trkpt lat="44.51887" lon="1.72103">
        <ele>201</ele>
        <time>2018-05-10T09:48:26Z</time>
      </trkpt>
      <trkpt lat="44.51887" lon="1.72102">
        <ele>201</ele>
        <time>2018-05-10T09:48:47Z</time>
      </trkpt>
      <trkpt lat="44.51887" lon="1.72102">
        <ele>201</ele>
        <time>2018-05-10T09:49:07Z</time>
      </trkpt>
      <trkpt lat="44.51885" lon="1.72103">
        <ele>201</ele>
        <time>2018-05-10T09:49:27Z</time>
      </trkpt>
      <trkpt lat="44.51884" lon="1.72103">
        <ele>201</ele>
        <time>2018-05-10T09:49:47Z</time>
      </trkpt>
      <trkpt lat="44.51884" lon="1.72103">
        <ele>201</ele>
        <time>2018-05-10T09:50:08Z</time>
      </trkpt>
      <trkpt lat="44.51884" lon="1.72103">
        <ele>201</ele>
        <time>2018-05-10T09:50:29Z</time>
      </trkpt>
      <trkpt lat="44.51884" lon="1.72103">
        <ele>201</ele>
        <time>2018-05-10T09:50:49Z</time>
      </trkpt>
      <trkpt lat="44.51884" lon="1.72103">
        <ele>201</ele>
        <time>2018-05-10T09:51:10Z</time>
      </trkpt>
      <trkpt lat="44.51884" lon="1.72103">
        <ele>201</ele>
        <time>2018-05-10T09:51:30Z</time>
      </trkpt>
      <trkpt lat="44.51884" lon="1.72103">
        <ele>201</ele>
        <time>2018-05-10T09:51:51Z</time>
      </trkpt>
      <trkpt lat="44.51884" lon="1.72103">
        <ele>201</ele>
        <time>2018-05-10T09:52:12Z</time>
      </trkpt>
      <trkpt lat="44.51884" lon="1.72103">
        <ele>201</ele>
        <time>2018-05-10T09:52:33Z</time>
      </trkpt>
      <trkpt lat="44.51884" lon="1.72103">
        <ele>201</ele>
        <time>2018-05-10T09:52:54Z</time>
      </trkpt>
      <trkpt lat="44.51884" lon="1.72103">
        <ele>201</ele>
        <time>2018-05-10T09:53:15Z</time>
      </trkpt>
      <trkpt lat="44.51888" lon="1.72102">
        <ele>201</ele>
        <time>2018-05-10T09:53:36Z</time>
      </trkpt>
      <trkpt lat="44.51907" lon="1.72095">
        <ele>199</ele>
        <time>2018-05-10T09:53:57Z</time>
      </trkpt>
      <trkpt lat="44.51908" lon="1.72095">
        <ele>199</ele>
        <time>2018-05-10T09:54:18Z</time>
      </trkpt>
      <trkpt lat="44.51908" lon="1.72094">
        <ele>199</ele>
        <time>2018-05-10T09:54:39Z</time>
      </trkpt>
      <trkpt lat="44.51913" lon="1.72091">
        <ele>198</ele>
        <time>2018-05-10T09:55:00Z</time>
      </trkpt>
      <trkpt lat="44.5193" lon="1.72072">
        <ele>201</ele>
        <time>2018-05-10T09:55:20Z</time>
      </trkpt>
      <trkpt lat="44.51935" lon="1.72067">
        <ele>203</ele>
        <time>2018-05-10T09:55:41Z</time>
      </trkpt>
      <trkpt lat="44.51938" lon="1.72061">
        <ele>204</ele>
        <time>2018-05-10T09:56:01Z</time>
      </trkpt>
      <trkpt lat="44.51963" lon="1.72046">
        <ele>209</ele>
        <time>2018-05-10T09:56:22Z</time>
      </trkpt>
      <trkpt lat="44.51978" lon="1.72029">
        <ele>211</ele>
        <time>2018-05-10T09:56:42Z</time>
      </trkpt>
      <trkpt lat="44.51986" lon="1.72008">
        <ele>212</ele>
        <time>2018-05-10T09:57:03Z</time>
      </trkpt>
      <trkpt lat="44.52006" lon="1.71977">
        <ele>229</ele>
        <time>2018-05-10T09:57:23Z</time>
      </trkpt>
      <trkpt lat="44.52023" lon="1.71959">
        <ele>233</ele>
        <time>2018-05-10T09:57:43Z</time>
      </trkpt>
      <trkpt lat="44.52021" lon="1.71961">
        <ele>233</ele>
        <time>2018-05-10T09:58:04Z</time>
      </trkpt>
      <trkpt lat="44.5202" lon="1.7196">
        <ele>232</ele>
        <time>2018-05-10T09:58:25Z</time>
      </trkpt>
      <trkpt lat="44.5202" lon="1.7196">
        <ele>232</ele>
        <time>2018-05-10T09:58:46Z</time>
      </trkpt>
      <trkpt lat="44.52017" lon="1.71952">
        <ele>230</ele>
        <time>2018-05-10T09:59:07Z</time>
      </trkpt>
      <trkpt lat="44.52015" lon="1.71955">
        <ele>230</ele>
        <time>2018-05-10T09:59:28Z</time>
      </trkpt>
      <trkpt lat="44.52016" lon="1.71946">
        <ele>228</ele>
        <time>2018-05-10T09:59:49Z</time>
      </trkpt>
      <trkpt lat="44.52021" lon="1.71931">
        <ele>225</ele>
        <time>2018-05-10T10:00:10Z</time>
      </trkpt>
      <trkpt lat="44.52024" lon="1.71908">
        <ele>217</ele>
        <time>2018-05-10T10:00:31Z</time>
      </trkpt>
      <trkpt lat="44.52027" lon="1.71876">
        <ele>219</ele>
        <time>2018-05-10T10:00:51Z</time>
      </trkpt>
      <trkpt lat="44.52031" lon="1.71841">
        <ele>216</ele>
        <time>2018-05-10T10:01:12Z</time>
      </trkpt>
      <trkpt lat="44.52029" lon="1.71814">
        <ele>211</ele>
        <time>2018-05-10T10:01:32Z</time>
      </trkpt>
      <trkpt lat="44.52034" lon="1.7178">
        <ele>214</ele>
        <time>2018-05-10T10:01:53Z</time>
      </trkpt>
      <trkpt lat="44.52031" lon="1.71749">
        <ele>213</ele>
        <time>2018-05-10T10:02:13Z</time>
      </trkpt>
      <trkpt lat="44.52029" lon="1.71733">
        <ele>212</ele>
        <time>2018-05-10T10:02:34Z</time>
      </trkpt>
      <trkpt lat="44.52024" lon="1.71705">
        <ele>212</ele>
        <time>2018-05-10T10:02:54Z</time>
      </trkpt>
      <trkpt lat="44.52016" lon="1.71674">
        <ele>207</ele>
        <time>2018-05-10T10:03:15Z</time>
      </trkpt>
      <trkpt lat="44.5201" lon="1.71648">
        <ele>208</ele>
        <time>2018-05-10T10:03:36Z</time>
      </trkpt>
      <trkpt lat="44.51994" lon="1.71621">
        <ele>188</ele>
        <time>2018-05-10T10:03:57Z</time>
      </trkpt>
      <trkpt lat="44.51982" lon="1.71592">
        <ele>191</ele>
        <time>2018-05-10T10:04:17Z</time>
      </trkpt>
      <trkpt lat="44.51972" lon="1.7158">
        <ele>190</ele>
        <time>2018-05-10T10:04:38Z</time>
      </trkpt>
      <trkpt lat="44.5196" lon="1.71565">
        <ele>186</ele>
        <time>2018-05-10T10:04:59Z</time>
      </trkpt>
      <trkpt lat="44.51959" lon="1.71544">
        <ele>185</ele>
        <time>2018-05-10T10:05:20Z</time>
      </trkpt>
      <trkpt lat="44.5197" lon="1.71508">
        <ele>189</ele>
        <time>2018-05-10T10:05:41Z</time>
      </trkpt>
      <trkpt lat="44.51976" lon="1.71499">
        <ele>192</ele>
        <time>2018-05-10T10:06:02Z</time>
      </trkpt>
      <trkpt lat="44.51994" lon="1.71475">
        <ele>193</ele>
        <time>2018-05-10T10:06:22Z</time>
      </trkpt>
      <trkpt lat="44.52014" lon="1.7145">
        <ele>203</ele>
        <time>2018-05-10T10:06:42Z</time>
      </trkpt>
      <trkpt lat="44.52022" lon="1.71426">
        <ele>202</ele>
        <time>2018-05-10T10:07:03Z</time>
      </trkpt>
      <trkpt lat="44.52023" lon="1.71426">
        <ele>202</ele>
        <time>2018-05-10T10:07:23Z</time>
      </trkpt>
      <trkpt lat="44.52025" lon="1.7143">
        <ele>202</ele>
        <time>2018-05-10T10:07:43Z</time>
      </trkpt>
      <trkpt lat="44.52027" lon="1.71434">
        <ele>203</ele>
        <time>2018-05-10T10:08:03Z</time>
      </trkpt>
      <trkpt lat="44.52043" lon="1.71422">
        <ele>204</ele>
        <time>2018-05-10T10:08:23Z</time>
      </trkpt>
      <trkpt lat="44.52059" lon="1.71397">
        <ele>202</ele>
        <time>2018-05-10T10:08:44Z</time>
      </trkpt>
      <trkpt lat="44.52079" lon="1.71379">
        <ele>202</ele>
        <time>2018-05-10T10:09:04Z</time>
      </trkpt>
      <trkpt lat="44.52102" lon="1.71361">
        <ele>205</ele>
        <time>2018-05-10T10:09:25Z</time>
      </trkpt>
      <trkpt lat="44.52118" lon="1.71342">
        <ele>204</ele>
        <time>2018-05-10T10:09:45Z</time>
      </trkpt>
      <trkpt lat="44.52128" lon="1.71313">
        <ele>207</ele>
        <time>2018-05-10T10:10:06Z</time>
      </trkpt>
      <trkpt lat="44.5214" lon="1.7129">
        <ele>209</ele>
        <time>2018-05-10T10:10:26Z</time>
      </trkpt>
      <trkpt lat="44.52162" lon="1.7127">
        <ele>210</ele>
        <time>2018-05-10T10:10:47Z</time>
      </trkpt>
      <trkpt lat="44.52181" lon="1.71261">
        <ele>210</ele>
        <time>2018-05-10T10:11:08Z</time>
      </trkpt>
      <trkpt lat="44.52198" lon="1.71251">
        <ele>210</ele>
        <time>2018-05-10T10:11:29Z</time>
      </trkpt>
      <trkpt lat="44.52218" lon="1.71241">
        <ele>222</ele>
        <time>2018-05-10T10:11:50Z</time>
      </trkpt>
      <trkpt lat="44.52236" lon="1.71242">
        <ele>219</ele>
        <time>2018-05-10T10:12:10Z</time>
      </trkpt>
      <trkpt lat="44.52255" lon="1.71245">
        <ele>218</ele>
        <time>2018-05-10T10:12:30Z</time>
      </trkpt>
      <trkpt lat="44.5227" lon="1.71252">
        <ele>216</ele>
        <time>2018-05-10T10:12:51Z</time>
      </trkpt>
      <trkpt lat="44.52281" lon="1.71253">
        <ele>218</ele>
        <time>2018-05-10T10:13:12Z</time>
      </trkpt>
      <trkpt lat="44.52291" lon="1.71255">
        <ele>219</ele>
        <time>2018-05-10T10:13:32Z</time>
      </trkpt>
      <trkpt lat="44.5228" lon="1.71235">
        <ele>227</ele>
        <time>2018-05-10T10:13:52Z</time>
      </trkpt>
      <trkpt lat="44.52261" lon="1.71219">
        <ele>228</ele>
        <time>2018-05-10T10:14:13Z</time>
      </trkpt>
      <trkpt lat="44.52245" lon="1.71212">
        <ele>225</ele>
        <time>2018-05-10T10:14:33Z</time>
      </trkpt>
      <trkpt lat="44.52236" lon="1.71201">
        <ele>228</ele>
        <time>2018-05-10T10:14:54Z</time>
      </trkpt>
      <trkpt lat="44.52236" lon="1.71202">
        <ele>228</ele>
        <time>2018-05-10T10:15:14Z</time>
      </trkpt>
      <trkpt lat="44.52234" lon="1.71202">
        <ele>227</ele>
        <time>2018-05-10T10:15:34Z</time>
      </trkpt>
      <trkpt lat="44.52228" lon="1.71195">
        <ele>229</ele>
        <time>2018-05-10T10:15:55Z</time>
      </trkpt>
      <trkpt lat="44.52251" lon="1.71191">
        <ele>233</ele>
        <time>2018-05-10T10:16:16Z</time>
      </trkpt>
      <trkpt lat="44.52271" lon="1.71191">
        <ele>232</ele>
        <time>2018-05-10T10:16:36Z</time>
      </trkpt>
      <trkpt lat="44.5229" lon="1.71197">
        <ele>232</ele>
        <time>2018-05-10T10:16:57Z</time>
      </trkpt>
      <trkpt lat="44.52308" lon="1.71193">
        <ele>234</ele>
        <time>2018-05-10T10:17:17Z</time>
      </trkpt>
      <trkpt lat="44.52326" lon="1.71191">
        <ele>235</ele>
        <time>2018-05-10T10:17:38Z</time>
      </trkpt>
      <trkpt lat="44.5234" lon="1.7118">
        <ele>241</ele>
        <time>2018-05-10T10:17:58Z</time>
      </trkpt>
      <trkpt lat="44.52347" lon="1.71153">
        <ele>243</ele>
        <time>2018-05-10T10:18:18Z</time>
      </trkpt>
      <trkpt lat="44.52349" lon="1.71133">
        <ele>244</ele>
        <time>2018-05-10T10:18:39Z</time>
      </trkpt>
      <trkpt lat="44.52349" lon="1.71131">
        <ele>244</ele>
        <time>2018-05-10T10:19:00Z</time>
      </trkpt>
      <trkpt lat="44.52345" lon="1.71105">
        <ele>244</ele>
        <time>2018-05-10T10:19:21Z</time>
      </trkpt>
      <trkpt lat="44.52346" lon="1.71077">
        <ele>243</ele>
        <time>2018-05-10T10:19:41Z</time>
      </trkpt>
      <trkpt lat="44.52336" lon="1.7105">
        <ele>242</ele>
        <time>2018-05-10T10:20:02Z</time>
      </trkpt>
      <trkpt lat="44.52334" lon="1.7103">
        <ele>240</ele>
        <time>2018-05-10T10:20:22Z</time>
      </trkpt>
      <trkpt lat="44.52344" lon="1.71003">
        <ele>239</ele>
        <time>2018-05-10T10:20:42Z</time>
      </trkpt>
      <trkpt lat="44.52359" lon="1.70978">
        <ele>232</ele>
        <time>2018-05-10T10:21:03Z</time>
      </trkpt>
      <trkpt lat="44.52375" lon="1.70957">
        <ele>231</ele>
        <time>2018-05-10T10:21:23Z</time>
      </trkpt>
      <trkpt lat="44.52391" lon="1.70934">
        <ele>229</ele>
        <time>2018-05-10T10:21:44Z</time>
      </trkpt>
      <trkpt lat="44.52404" lon="1.70917">
        <ele>222</ele>
        <time>2018-05-10T10:22:04Z</time>
      </trkpt>
      <trkpt lat="44.52422" lon="1.70891">
        <ele>224</ele>
        <time>2018-05-10T10:22:25Z</time>
      </trkpt>
      <trkpt lat="44.52434" lon="1.70874">
        <ele>222</ele>
        <time>2018-05-10T10:22:46Z</time>
      </trkpt>
      <trkpt lat="44.52437" lon="1.70878">
        <ele>222</ele>
        <time>2018-05-10T10:23:07Z</time>
      </trkpt>
      <trkpt lat="44.52439" lon="1.70872">
        <ele>221</ele>
        <time>2018-05-10T10:23:27Z</time>
      </trkpt>
      <trkpt lat="44.52447" lon="1.70853">
        <ele>220</ele>
        <time>2018-05-10T10:23:48Z</time>
      </trkpt>
      <trkpt lat="44.52462" lon="1.70832">
        <ele>213</ele>
        <time>2018-05-10T10:24:08Z</time>
      </trkpt>
      <trkpt lat="44.52475" lon="1.70819">
        <ele>214</ele>
        <time>2018-05-10T10:24:28Z</time>
      </trkpt>
      <trkpt lat="44.52492" lon="1.70802">
        <ele>214</ele>
        <time>2018-05-10T10:24:49Z</time>
      </trkpt>
      <trkpt lat="44.52513" lon="1.70787">
        <ele>217</ele>
        <time>2018-05-10T10:25:10Z</time>
      </trkpt>
      <trkpt lat="44.52529" lon="1.70782">
        <ele>217</ele>
        <time>2018-05-10T10:25:30Z</time>
      </trkpt>
      <trkpt lat="44.52548" lon="1.70774">
        <ele>218</ele>
        <time>2018-05-10T10:25:50Z</time>
      </trkpt>
      <trkpt lat="44.52555" lon="1.70765">
        <ele>218</ele>
        <time>2018-05-10T10:26:11Z</time>
      </trkpt>
      <trkpt lat="44.52578" lon="1.70747">
        <ele>219</ele>
        <time>2018-05-10T10:26:31Z</time>
      </trkpt>
      <trkpt lat="44.52601" lon="1.70738">
        <ele>223</ele>
        <time>2018-05-10T10:26:52Z</time>
      </trkpt>
      <trkpt lat="44.52618" lon="1.70726">
        <ele>225</ele>
        <time>2018-05-10T10:27:13Z</time>
      </trkpt>
      <trkpt lat="44.52633" lon="1.70714">
        <ele>226</ele>
        <time>2018-05-10T10:27:34Z</time>
      </trkpt>
      <trkpt lat="44.5265" lon="1.707">
        <ele>228</ele>
        <time>2018-05-10T10:27:55Z</time>
      </trkpt>
      <trkpt lat="44.5267" lon="1.7068">
        <ele>232</ele>
        <time>2018-05-10T10:28:15Z</time>
      </trkpt>
      <trkpt lat="44.52686" lon="1.70659">
        <ele>236</ele>
        <time>2018-05-10T10:28:36Z</time>
      </trkpt>
      <trkpt lat="44.52697" lon="1.70639">
        <ele>237</ele>
        <time>2018-05-10T10:28:57Z</time>
      </trkpt>
      <trkpt lat="44.52709" lon="1.70619">
        <ele>239</ele>
        <time>2018-05-10T10:29:17Z</time>
      </trkpt>
      <trkpt lat="44.52725" lon="1.706">
        <ele>240</ele>
        <time>2018-05-10T10:29:37Z</time>
      </trkpt>
      <trkpt lat="44.5274" lon="1.70582">
        <ele>244</ele>
        <time>2018-05-10T10:29:58Z</time>
      </trkpt>
      <trkpt lat="44.5276" lon="1.70581">
        <ele>244</ele>
        <time>2018-05-10T10:30:19Z</time>
      </trkpt>
      <trkpt lat="44.52775" lon="1.70564">
        <ele>245</ele>
        <time>2018-05-10T10:30:39Z</time>
      </trkpt>
      <trkpt lat="44.52778" lon="1.70535">
        <ele>246</ele>
        <time>2018-05-10T10:31:00Z</time>
      </trkpt>
      <trkpt lat="44.52773" lon="1.70503">
        <ele>247</ele>
        <time>2018-05-10T10:31:21Z</time>
      </trkpt>
      <trkpt lat="44.52759" lon="1.70476">
        <ele>251</ele>
        <time>2018-05-10T10:31:42Z</time>
      </trkpt>
      <trkpt lat="44.52757" lon="1.70472">
        <ele>252</ele>
        <time>2018-05-10T10:32:03Z</time>
      </trkpt>
      <trkpt lat="44.52766" lon="1.70464">
        <ele>252</ele>
        <time>2018-05-10T10:32:23Z</time>
      </trkpt>
      <trkpt lat="44.52787" lon="1.70451">
        <ele>253</ele>
        <time>2018-05-10T10:32:44Z</time>
      </trkpt>
      <trkpt lat="44.5281" lon="1.70446">
        <ele>254</ele>
        <time>2018-05-10T10:33:04Z</time>
      </trkpt>
      <trkpt lat="44.52831" lon="1.70431">
        <ele>255</ele>
        <time>2018-05-10T10:33:25Z</time>
      </trkpt>
      <trkpt lat="44.52844" lon="1.70406">
        <ele>258</ele>
        <time>2018-05-10T10:33:46Z</time>
      </trkpt>
      <trkpt lat="44.52858" lon="1.70382">
        <ele>260</ele>
        <time>2018-05-10T10:34:07Z</time>
      </trkpt>
      <trkpt lat="44.5288" lon="1.70361">
        <ele>260</ele>
        <time>2018-05-10T10:34:28Z</time>
      </trkpt>
      <trkpt lat="44.529" lon="1.70343">
        <ele>261</ele>
        <time>2018-05-10T10:34:49Z</time>
      </trkpt>
      <trkpt lat="44.52922" lon="1.70333">
        <ele>262</ele>
        <time>2018-05-10T10:35:10Z</time>
      </trkpt>
      <trkpt lat="44.52941" lon="1.70315">
        <ele>263</ele>
        <time>2018-05-10T10:35:31Z</time>
      </trkpt>
      <trkpt lat="44.5296" lon="1.70298">
        <ele>263</ele>
        <time>2018-05-10T10:35:52Z</time>
      </trkpt>
      <trkpt lat="44.52977" lon="1.70275">
        <ele>263</ele>
        <time>2018-05-10T10:36:12Z</time>
      </trkpt>
      <trkpt lat="44.52995" lon="1.70252">
        <ele>264</ele>
        <time>2018-05-10T10:36:33Z</time>
      </trkpt>
      <trkpt lat="44.53008" lon="1.70224">
        <ele>265</ele>
        <time>2018-05-10T10:36:53Z</time>
      </trkpt>
      <trkpt lat="44.53012" lon="1.70195">
        <ele>266</ele>
        <time>2018-05-10T10:37:14Z</time>
      </trkpt>
      <trkpt lat="44.53006" lon="1.70175">
        <ele>266</ele>
        <time>2018-05-10T10:37:34Z</time>
      </trkpt>
      <trkpt lat="44.53002" lon="1.70137">
        <ele>266</ele>
        <time>2018-05-10T10:37:55Z</time>
      </trkpt>
      <trkpt lat="44.53005" lon="1.70135">
        <ele>266</ele>
        <time>2018-05-10T10:38:16Z</time>
      </trkpt>
      <trkpt lat="44.53005" lon="1.70135">
        <ele>266</ele>
        <time>2018-05-10T10:38:36Z</time>
      </trkpt>
      <trkpt lat="44.53004" lon="1.70115">
        <ele>266</ele>
        <time>2018-05-10T10:38:56Z</time>
      </trkpt>
      <trkpt lat="44.53006" lon="1.70079">
        <ele>264</ele>
        <time>2018-05-10T10:39:17Z</time>
      </trkpt>
      <trkpt lat="44.53018" lon="1.70043">
        <ele>262</ele>
        <time>2018-05-10T10:39:38Z</time>
      </trkpt>
      <trkpt lat="44.53033" lon="1.70024">
        <ele>261</ele>
        <time>2018-05-10T10:39:59Z</time>
      </trkpt>
      <trkpt lat="44.53052" lon="1.70004">
        <ele>262</ele>
        <time>2018-05-10T10:40:19Z</time>
      </trkpt>
      <trkpt lat="44.53076" lon="1.69982">
        <ele>258</ele>
        <time>2018-05-10T10:40:40Z</time>
      </trkpt>
      <trkpt lat="44.53097" lon="1.69957">
        <ele>258</ele>
        <time>2018-05-10T10:41:00Z</time>
      </trkpt>
      <trkpt lat="44.53109" lon="1.69935">
        <ele>256</ele>
        <time>2018-05-10T10:41:21Z</time>
      </trkpt>
      <trkpt lat="44.53134" lon="1.69925">
        <ele>256</ele>
        <time>2018-05-10T10:41:42Z</time>
      </trkpt>
      <trkpt lat="44.53157" lon="1.69904">
        <ele>251</ele>
        <time>2018-05-10T10:42:03Z</time>
      </trkpt>
      <trkpt lat="44.53161" lon="1.69902">
        <ele>251</ele>
        <time>2018-05-10T10:42:24Z</time>
      </trkpt>
      <trkpt lat="44.53162" lon="1.69902">
        <ele>251</ele>
        <time>2018-05-10T10:42:44Z</time>
      </trkpt>
      <trkpt lat="44.53162" lon="1.69902">
        <ele>251</ele>
        <time>2018-05-10T10:43:04Z</time>
      </trkpt>
      <trkpt lat="44.53166" lon="1.69901">
        <ele>251</ele>
        <time>2018-05-10T10:43:24Z</time>
      </trkpt>
      <trkpt lat="44.53167" lon="1.699">
        <ele>252</ele>
        <time>2018-05-10T10:43:45Z</time>
      </trkpt>
      <trkpt lat="44.53173" lon="1.69879">
        <ele>252</ele>
        <time>2018-05-10T10:44:06Z</time>
      </trkpt>
      <trkpt lat="44.53154" lon="1.69882">
        <ele>249</ele>
        <time>2018-05-10T10:44:27Z</time>
      </trkpt>
      <trkpt lat="44.5313" lon="1.69879">
        <ele>249</ele>
        <time>2018-05-10T10:44:48Z</time>
      </trkpt>
      <trkpt lat="44.53108" lon="1.69875">
        <ele>248</ele>
        <time>2018-05-10T10:45:08Z</time>
      </trkpt>
      <trkpt lat="44.5308" lon="1.69874">
        <ele>246</ele>
        <time>2018-05-10T10:45:29Z</time>
      </trkpt>
      <trkpt lat="44.5306" lon="1.6987">
        <ele>246</ele>
        <time>2018-05-10T10:45:49Z</time>
      </trkpt>
      <trkpt lat="44.53035" lon="1.69869">
        <ele>246</ele>
        <time>2018-05-10T10:46:10Z</time>
      </trkpt>
      <trkpt lat="44.53009" lon="1.69869">
        <ele>245</ele>
        <time>2018-05-10T10:46:31Z</time>
      </trkpt>
      <trkpt lat="44.52987" lon="1.69871">
        <ele>244</ele>
        <time>2018-05-10T10:46:51Z</time>
      </trkpt>
      <trkpt lat="44.52965" lon="1.69865">
        <ele>244</ele>
        <time>2018-05-10T10:47:12Z</time>
      </trkpt>
      <trkpt lat="44.52939" lon="1.69853">
        <ele>243</ele>
        <time>2018-05-10T10:47:33Z</time>
      </trkpt>
      <trkpt lat="44.52911" lon="1.69842">
        <ele>241</ele>
        <time>2018-05-10T10:47:54Z</time>
      </trkpt>
      <trkpt lat="44.52888" lon="1.69846">
        <ele>242</ele>
        <time>2018-05-10T10:48:15Z</time>
      </trkpt>
      <trkpt lat="44.52865" lon="1.69853">
        <ele>242</ele>
        <time>2018-05-10T10:48:35Z</time>
      </trkpt>
      <trkpt lat="44.52838" lon="1.69848">
        <ele>241</ele>
        <time>2018-05-10T10:48:56Z</time>
      </trkpt>
      <trkpt lat="44.52813" lon="1.69841">
        <ele>242</ele>
        <time>2018-05-10T10:49:16Z</time>
      </trkpt>
      <trkpt lat="44.52788" lon="1.69839">
        <ele>243</ele>
        <time>2018-05-10T10:49:36Z</time>
      </trkpt>
      <trkpt lat="44.52764" lon="1.69831">
        <ele>239</ele>
        <time>2018-05-10T10:49:56Z</time>
      </trkpt>
      <trkpt lat="44.5274" lon="1.69819">
        <ele>240</ele>
        <time>2018-05-10T10:50:17Z</time>
      </trkpt>
      <trkpt lat="44.5272" lon="1.69809">
        <ele>239</ele>
        <time>2018-05-10T10:50:37Z</time>
      </trkpt>
      <trkpt lat="44.527" lon="1.69784">
        <ele>239</ele>
        <time>2018-05-10T10:50:58Z</time>
      </trkpt>
      <trkpt lat="44.52682" lon="1.69756">
        <ele>237</ele>
        <time>2018-05-10T10:51:18Z</time>
      </trkpt>
      <trkpt lat="44.52659" lon="1.69733">
        <ele>234</ele>
        <time>2018-05-10T10:51:39Z</time>
      </trkpt>
      <trkpt lat="44.52647" lon="1.69721">
        <ele>233</ele>
        <time>2018-05-10T10:52:00Z</time>
      </trkpt>
      <trkpt lat="44.52623" lon="1.697">
        <ele>232</ele>
        <time>2018-05-10T10:52:21Z</time>
      </trkpt>
      <trkpt lat="44.52601" lon="1.6968">
        <ele>231</ele>
        <time>2018-05-10T10:52:42Z</time>
      </trkpt>
      <trkpt lat="44.52578" lon="1.69667">
        <ele>228</ele>
        <time>2018-05-10T10:53:03Z</time>
      </trkpt>
      <trkpt lat="44.52555" lon="1.69654">
        <ele>226</ele>
        <time>2018-05-10T10:53:24Z</time>
      </trkpt>
      <trkpt lat="44.52541" lon="1.69638">
        <ele>226</ele>
        <time>2018-05-10T10:53:44Z</time>
      </trkpt>
      <trkpt lat="44.52541" lon="1.69609">
        <ele>225</ele>
        <time>2018-05-10T10:54:05Z</time>
      </trkpt>
      <trkpt lat="44.52546" lon="1.69574">
        <ele>225</ele>
        <time>2018-05-10T10:54:25Z</time>
      </trkpt>
      <trkpt lat="44.52543" lon="1.69547">
        <ele>225</ele>
        <time>2018-05-10T10:54:45Z</time>
      </trkpt>
      <trkpt lat="44.52547" lon="1.69518">
        <ele>226</ele>
        <time>2018-05-10T10:55:06Z</time>
      </trkpt>
      <trkpt lat="44.52547" lon="1.6949">
        <ele>229</ele>
        <time>2018-05-10T10:55:27Z</time>
      </trkpt>
      <trkpt lat="44.52542" lon="1.69459">
        <ele>230</ele>
        <time>2018-05-10T10:55:47Z</time>
      </trkpt>
      <trkpt lat="44.52546" lon="1.69436">
        <ele>230</ele>
        <time>2018-05-10T10:56:08Z</time>
      </trkpt>
      <trkpt lat="44.52544" lon="1.69437">
        <ele>230</ele>
        <time>2018-05-10T10:56:29Z</time>
      </trkpt>
      <trkpt lat="44.52544" lon="1.69437">
        <ele>230</ele>
        <time>2018-05-10T10:56:49Z</time>
      </trkpt>
      <trkpt lat="44.52548" lon="1.69431">
        <ele>231</ele>
        <time>2018-05-10T10:57:09Z</time>
      </trkpt>
      <trkpt lat="44.52546" lon="1.69412">
        <ele>235</ele>
        <time>2018-05-10T10:57:30Z</time>
      </trkpt>
      <trkpt lat="44.52554" lon="1.69382">
        <ele>236</ele>
        <time>2018-05-10T10:57:50Z</time>
      </trkpt>
      <trkpt lat="44.52558" lon="1.69354">
        <ele>238</ele>
        <time>2018-05-10T10:58:11Z</time>
      </trkpt>
      <trkpt lat="44.52561" lon="1.69328">
        <ele>242</ele>
        <time>2018-05-10T10:58:31Z</time>
      </trkpt>
      <trkpt lat="44.52562" lon="1.69301">
        <ele>244</ele>
        <time>2018-05-10T10:58:52Z</time>
      </trkpt>
      <trkpt lat="44.52568" lon="1.69276">
        <ele>245</ele>
        <time>2018-05-10T10:59:13Z</time>
      </trkpt>
      <trkpt lat="44.52567" lon="1.69249">
        <ele>249</ele>
        <time>2018-05-10T10:59:34Z</time>
      </trkpt>
      <trkpt lat="44.52571" lon="1.69214">
        <ele>249</ele>
        <time>2018-05-10T10:59:55Z</time>
      </trkpt>
      <trkpt lat="44.52572" lon="1.69185">
        <ele>250</ele>
        <time>2018-05-10T11:00:16Z</time>
      </trkpt>
      <trkpt lat="44.52577" lon="1.6915">
        <ele>251</ele>
        <time>2018-05-10T11:00:37Z</time>
      </trkpt>
      <trkpt lat="44.52575" lon="1.69118">
        <ele>252</ele>
        <time>2018-05-10T11:00:57Z</time>
      </trkpt>
      <trkpt lat="44.52578" lon="1.69089">
        <ele>253</ele>
        <time>2018-05-10T11:01:18Z</time>
      </trkpt>
      <trkpt lat="44.52579" lon="1.69064">
        <ele>253</ele>
        <time>2018-05-10T11:01:39Z</time>
      </trkpt>
      <trkpt lat="44.52575" lon="1.69032">
        <ele>254</ele>
        <time>2018-05-10T11:02:00Z</time>
      </trkpt>
      <trkpt lat="44.52579" lon="1.69005">
        <ele>255</ele>
        <time>2018-05-10T11:02:20Z</time>
      </trkpt>
      <trkpt lat="44.52588" lon="1.68972">
        <ele>257</ele>
        <time>2018-05-10T11:02:41Z</time>
      </trkpt>
      <trkpt lat="44.52597" lon="1.68947">
        <ele>258</ele>
        <time>2018-05-10T11:03:01Z</time>
      </trkpt>
      <trkpt lat="44.52618" lon="1.68936">
        <ele>258</ele>
        <time>2018-05-10T11:03:22Z</time>
      </trkpt>
      <trkpt lat="44.52637" lon="1.68914">
        <ele>261</ele>
        <time>2018-05-10T11:03:43Z</time>
      </trkpt>
      <trkpt lat="44.52646" lon="1.68879">
        <ele>261</ele>
        <time>2018-05-10T11:04:04Z</time>
      </trkpt>
      <trkpt lat="44.52654" lon="1.68849">
        <ele>262</ele>
        <time>2018-05-10T11:04:24Z</time>
      </trkpt>
      <trkpt lat="44.52663" lon="1.68823">
        <ele>264</ele>
        <time>2018-05-10T11:04:45Z</time>
      </trkpt>
      <trkpt lat="44.52674" lon="1.68798">
        <ele>266</ele>
        <time>2018-05-10T11:05:05Z</time>
      </trkpt>
      <trkpt lat="44.52689" lon="1.68767">
        <ele>266</ele>
        <time>2018-05-10T11:05:26Z</time>
      </trkpt>
      <trkpt lat="44.52709" lon="1.68749">
        <ele>266</ele>
        <time>2018-05-10T11:05:47Z</time>
      </trkpt>
      <trkpt lat="44.52716" lon="1.68714">
        <ele>265</ele>
        <time>2018-05-10T11:06:08Z</time>
      </trkpt>
      <trkpt lat="44.52726" lon="1.68691">
        <ele>264</ele>
        <time>2018-05-10T11:06:28Z</time>
      </trkpt>
      <trkpt lat="44.52734" lon="1.68659">
        <ele>262</ele>
        <time>2018-05-10T11:06:49Z</time>
      </trkpt>
      <trkpt lat="44.5274" lon="1.68634">
        <ele>262</ele>
        <time>2018-05-10T11:07:09Z</time>
      </trkpt>
      <trkpt lat="44.52741" lon="1.68613">
        <ele>261</ele>
        <time>2018-05-10T11:07:29Z</time>
      </trkpt>
      <trkpt lat="44.52742" lon="1.6858">
        <ele>257</ele>
        <time>2018-05-10T11:07:50Z</time>
      </trkpt>
      <trkpt lat="44.52748" lon="1.68549">
        <ele>258</ele>
        <time>2018-05-10T11:08:11Z</time>
      </trkpt>
      <trkpt lat="44.52755" lon="1.68525">
        <ele>251</ele>
        <time>2018-05-10T11:08:31Z</time>
      </trkpt>
      <trkpt lat="44.52765" lon="1.68502">
        <ele>251</ele>
        <time>2018-05-10T11:08:52Z</time>
      </trkpt>
      <trkpt lat="44.52775" lon="1.68486">
        <ele>245</ele>
        <time>2018-05-10T11:09:12Z</time>
      </trkpt>
      <trkpt lat="44.5277" lon="1.6846">
        <ele>243</ele>
        <time>2018-05-10T11:09:33Z</time>
      </trkpt>
      <trkpt lat="44.52761" lon="1.68434">
        <ele>242</ele>
        <time>2018-05-10T11:09:53Z</time>
      </trkpt>
      <trkpt lat="44.52758" lon="1.68403">
        <ele>238</ele>
        <time>2018-05-10T11:10:14Z</time>
      </trkpt>
      <trkpt lat="44.52756" lon="1.68381">
        <ele>236</ele>
        <time>2018-05-10T11:10:35Z</time>
      </trkpt>
      <trkpt lat="44.52754" lon="1.68358">
        <ele>234</ele>
        <time>2018-05-10T11:10:55Z</time>
      </trkpt>
      <trkpt lat="44.52754" lon="1.68323">
        <ele>232</ele>
        <time>2018-05-10T11:11:16Z</time>
      </trkpt>
      <trkpt lat="44.52748" lon="1.68296">
        <ele>236</ele>
        <time>2018-05-10T11:11:36Z</time>
      </trkpt>
      <trkpt lat="44.52754" lon="1.68266">
        <ele>228</ele>
        <time>2018-05-10T11:11:57Z</time>
      </trkpt>
      <trkpt lat="44.52775" lon="1.68273">
        <ele>228</ele>
        <time>2018-05-10T11:12:18Z</time>
      </trkpt>
      <trkpt lat="44.52788" lon="1.68282">
        <ele>227</ele>
        <time>2018-05-10T11:12:39Z</time>
      </trkpt>
      <trkpt lat="44.52812" lon="1.68301">
        <ele>226</ele>
        <time>2018-05-10T11:12:59Z</time>
      </trkpt>
      <trkpt lat="44.52831" lon="1.68303">
        <ele>226</ele>
        <time>2018-05-10T11:13:20Z</time>
      </trkpt>
      <trkpt lat="44.52855" lon="1.68288">
        <ele>227</ele>
        <time>2018-05-10T11:13:41Z</time>
      </trkpt>
      <trkpt lat="44.52863" lon="1.68252">
        <ele>227</ele>
        <time>2018-05-10T11:14:02Z</time>
      </trkpt>
      <trkpt lat="44.52867" lon="1.68224">
        <ele>229</ele>
        <time>2018-05-10T11:14:23Z</time>
      </trkpt>
      <trkpt lat="44.52858" lon="1.68188">
        <ele>228</ele>
        <time>2018-05-10T11:14:44Z</time>
      </trkpt>
      <trkpt lat="44.52855" lon="1.68158">
        <ele>227</ele>
        <time>2018-05-10T11:15:04Z</time>
      </trkpt>
      <trkpt lat="44.52852" lon="1.68134">
        <ele>228</ele>
        <time>2018-05-10T11:15:24Z</time>
      </trkpt>
      <trkpt lat="44.52859" lon="1.68112">
        <ele>227</ele>
        <time>2018-05-10T11:15:45Z</time>
      </trkpt>
      <trkpt lat="44.52872" lon="1.68084">
        <ele>228</ele>
        <time>2018-05-10T11:16:05Z</time>
      </trkpt>
      <trkpt lat="44.52888" lon="1.6806">
        <ele>224</ele>
        <time>2018-05-10T11:16:26Z</time>
      </trkpt>
      <trkpt lat="44.52907" lon="1.68038">
        <ele>224</ele>
        <time>2018-05-10T11:16:46Z</time>
      </trkpt>
      <trkpt lat="44.52921" lon="1.68014">
        <ele>226</ele>
        <time>2018-05-10T11:17:06Z</time>
      </trkpt>
      <trkpt lat="44.52935" lon="1.67988">
        <ele>221</ele>
        <time>2018-05-10T11:17:27Z</time>
      </trkpt>
      <trkpt lat="44.52952" lon="1.6797">
        <ele>220</ele>
        <time>2018-05-10T11:17:48Z</time>
      </trkpt>
      <trkpt lat="44.5297" lon="1.67947">
        <ele>219</ele>
        <time>2018-05-10T11:18:09Z</time>
      </trkpt>
      <trkpt lat="44.52982" lon="1.6792">
        <ele>217</ele>
        <time>2018-05-10T11:18:29Z</time>
      </trkpt>
      <trkpt lat="44.52998" lon="1.67905">
        <ele>215</ele>
        <time>2018-05-10T11:18:49Z</time>
      </trkpt>
      <trkpt lat="44.53017" lon="1.67902">
        <ele>216</ele>
        <time>2018-05-10T11:19:10Z</time>
      </trkpt>
      <trkpt lat="44.53034" lon="1.67887">
        <ele>216</ele>
        <time>2018-05-10T11:19:30Z</time>
      </trkpt>
      <trkpt lat="44.53031" lon="1.67853">
        <ele>216</ele>
        <time>2018-05-10T11:19:51Z</time>
      </trkpt>
      <trkpt lat="44.53016" lon="1.67834">
        <ele>216</ele>
        <time>2018-05-10T11:20:11Z</time>
      </trkpt>
      <trkpt lat="44.52998" lon="1.67814">
        <ele>220</ele>
        <time>2018-05-10T11:20:32Z</time>
      </trkpt>
      <trkpt lat="44.52975" lon="1.67807">
        <ele>222</ele>
        <time>2018-05-10T11:20:52Z</time>
      </trkpt>
      <trkpt lat="44.52956" lon="1.67801">
        <ele>222</ele>
        <time>2018-05-10T11:21:13Z</time>
      </trkpt>
      <trkpt lat="44.52927" lon="1.67796">
        <ele>222</ele>
        <time>2018-05-10T11:21:34Z</time>
      </trkpt>
      <trkpt lat="44.52901" lon="1.6779">
        <ele>223</ele>
        <time>2018-05-10T11:21:55Z</time>
      </trkpt>
      <trkpt lat="44.52884" lon="1.67777">
        <ele>224</ele>
        <time>2018-05-10T11:22:16Z</time>
      </trkpt>
      <trkpt lat="44.52866" lon="1.67752">
        <ele>225</ele>
        <time>2018-05-10T11:22:37Z</time>
      </trkpt>
      <trkpt lat="44.52852" lon="1.67726">
        <ele>228</ele>
        <time>2018-05-10T11:22:58Z</time>
      </trkpt>
      <trkpt lat="44.52842" lon="1.67701">
        <ele>228</ele>
        <time>2018-05-10T11:23:18Z</time>
      </trkpt>
      <trkpt lat="44.52841" lon="1.67702">
        <ele>228</ele>
        <time>2018-05-10T11:23:39Z</time>
      </trkpt>
      <trkpt lat="44.52841" lon="1.67702">
        <ele>228</ele>
        <time>2018-05-10T11:23:59Z</time>
      </trkpt>
      <trkpt lat="44.52833" lon="1.67697">
        <ele>225</ele>
        <time>2018-05-10T11:24:20Z</time>
      </trkpt>
      <trkpt lat="44.52815" lon="1.67685">
        <ele>225</ele>
        <time>2018-05-10T11:24:40Z</time>
      </trkpt>
      <trkpt lat="44.52789" lon="1.67671">
        <ele>224</ele>
        <time>2018-05-10T11:25:01Z</time>
      </trkpt>
      <trkpt lat="44.52774" lon="1.67648">
        <ele>226</ele>
        <time>2018-05-10T11:25:22Z</time>
      </trkpt>
      <trkpt lat="44.52758" lon="1.67623">
        <ele>226</ele>
        <time>2018-05-10T11:25:42Z</time>
      </trkpt>
      <trkpt lat="44.52743" lon="1.67597">
        <ele>224</ele>
        <time>2018-05-10T11:26:03Z</time>
      </trkpt>
      <trkpt lat="44.52731" lon="1.67568">
        <ele>224</ele>
        <time>2018-05-10T11:26:24Z</time>
      </trkpt>
      <trkpt lat="44.52737" lon="1.67534">
        <ele>224</ele>
        <time>2018-05-10T11:26:45Z</time>
      </trkpt>
      <trkpt lat="44.52743" lon="1.67498">
        <ele>227</ele>
        <time>2018-05-10T11:27:06Z</time>
      </trkpt>
      <trkpt lat="44.5275" lon="1.67469">
        <ele>230</ele>
        <time>2018-05-10T11:27:26Z</time>
      </trkpt>
      <trkpt lat="44.5276" lon="1.67436">
        <ele>230</ele>
        <time>2018-05-10T11:27:46Z</time>
      </trkpt>
      <trkpt lat="44.52768" lon="1.67408">
        <ele>232</ele>
        <time>2018-05-10T11:28:07Z</time>
      </trkpt>
      <trkpt lat="44.52766" lon="1.67379">
        <ele>234</ele>
        <time>2018-05-10T11:28:28Z</time>
      </trkpt>
      <trkpt lat="44.52752" lon="1.6735">
        <ele>234</ele>
        <time>2018-05-10T11:28:49Z</time>
      </trkpt>
      <trkpt lat="44.52741" lon="1.67324">
        <ele>234</ele>
        <time>2018-05-10T11:29:10Z</time>
      </trkpt>
      <trkpt lat="44.52745" lon="1.67291">
        <ele>235</ele>
        <time>2018-05-10T11:29:31Z</time>
      </trkpt>
      <trkpt lat="44.52742" lon="1.67261">
        <ele>236</ele>
        <time>2018-05-10T11:29:52Z</time>
      </trkpt>
      <trkpt lat="44.52746" lon="1.67227">
        <ele>240</ele>
        <time>2018-05-10T11:30:13Z</time>
      </trkpt>
      <trkpt lat="44.5274" lon="1.67202">
        <ele>241</ele>
        <time>2018-05-10T11:30:34Z</time>
      </trkpt>
      <trkpt lat="44.52723" lon="1.6718">
        <ele>242</ele>
        <time>2018-05-10T11:30:55Z</time>
      </trkpt>
      <trkpt lat="44.52708" lon="1.67156">
        <ele>246</ele>
        <time>2018-05-10T11:31:16Z</time>
      </trkpt>
      <trkpt lat="44.52695" lon="1.67137">
        <ele>247</ele>
        <time>2018-05-10T11:31:36Z</time>
      </trkpt>
      <trkpt lat="44.52678" lon="1.67111">
        <ele>248</ele>
        <time>2018-05-10T11:31:57Z</time>
      </trkpt>
      <trkpt lat="44.52689" lon="1.67087">
        <ele>249</ele>
        <time>2018-05-10T11:32:17Z</time>
      </trkpt>
      <trkpt lat="44.52697" lon="1.67054">
        <ele>251</ele>
        <time>2018-05-10T11:32:37Z</time>
      </trkpt>
      <trkpt lat="44.52695" lon="1.67011">
        <ele>250</ele>
        <time>2018-05-10T11:32:58Z</time>
      </trkpt>
      <trkpt lat="44.52702" lon="1.66982">
        <ele>250</ele>
        <time>2018-05-10T11:33:18Z</time>
      </trkpt>
      <trkpt lat="44.52704" lon="1.6694">
        <ele>250</ele>
        <time>2018-05-10T11:33:39Z</time>
      </trkpt>
      <trkpt lat="44.5271" lon="1.66904">
        <ele>249</ele>
        <time>2018-05-10T11:33:59Z</time>
      </trkpt>
      <trkpt lat="44.52714" lon="1.66869">
        <ele>249</ele>
        <time>2018-05-10T11:34:19Z</time>
      </trkpt>
      <trkpt lat="44.52727" lon="1.6683">
        <ele>249</ele>
        <time>2018-05-10T11:34:40Z</time>
      </trkpt>
      <trkpt lat="44.52728" lon="1.66796">
        <ele>247</ele>
        <time>2018-05-10T11:35:01Z</time>
      </trkpt>
      <trkpt lat="44.52727" lon="1.66764">
        <ele>246</ele>
        <time>2018-05-10T11:35:21Z</time>
      </trkpt>
      <trkpt lat="44.52723" lon="1.66718">
        <ele>244</ele>
        <time>2018-05-10T11:35:41Z</time>
      </trkpt>
      <trkpt lat="44.52713" lon="1.66694">
        <ele>243</ele>
        <time>2018-05-10T11:36:02Z</time>
      </trkpt>
      <trkpt lat="44.5269" lon="1.66669">
        <ele>241</ele>
        <time>2018-05-10T11:36:22Z</time>
      </trkpt>
      <trkpt lat="44.5267" lon="1.66641">
        <ele>243</ele>
        <time>2018-05-10T11:36:43Z</time>
      </trkpt>
      <trkpt lat="44.5265" lon="1.66616">
        <ele>247</ele>
        <time>2018-05-10T11:37:03Z</time>
      </trkpt>
      <trkpt lat="44.52633" lon="1.6659">
        <ele>249</ele>
        <time>2018-05-10T11:37:24Z</time>
      </trkpt>
      <trkpt lat="44.52616" lon="1.66561">
        <ele>252</ele>
        <time>2018-05-10T11:37:45Z</time>
      </trkpt>
      <trkpt lat="44.526" lon="1.66534">
        <ele>252</ele>
        <time>2018-05-10T11:38:06Z</time>
      </trkpt>
      <trkpt lat="44.52586" lon="1.66518">
        <ele>252</ele>
        <time>2018-05-10T11:38:26Z</time>
      </trkpt>
      <trkpt lat="44.5257" lon="1.66484">
        <ele>256</ele>
        <time>2018-05-10T11:38:46Z</time>
      </trkpt>
      <trkpt lat="44.52557" lon="1.66449">
        <ele>259</ele>
        <time>2018-05-10T11:39:07Z</time>
      </trkpt>
      <trkpt lat="44.52545" lon="1.6642">
        <ele>259</ele>
        <time>2018-05-10T11:39:28Z</time>
      </trkpt>
      <trkpt lat="44.52524" lon="1.664">
        <ele>262</ele>
        <time>2018-05-10T11:39:48Z</time>
      </trkpt>
      <trkpt lat="44.52505" lon="1.66383">
        <ele>263</ele>
        <time>2018-05-10T11:40:09Z</time>
      </trkpt>
      <trkpt lat="44.52494" lon="1.66368">
        <ele>266</ele>
        <time>2018-05-10T11:40:29Z</time>
      </trkpt>
      <trkpt lat="44.52492" lon="1.6635">
        <ele>266</ele>
        <time>2018-05-10T11:40:49Z</time>
      </trkpt>
      <trkpt lat="44.52484" lon="1.66333">
        <ele>267</ele>
        <time>2018-05-10T11:41:09Z</time>
      </trkpt>
      <trkpt lat="44.52477" lon="1.66311">
        <ele>268</ele>
        <time>2018-05-10T11:41:30Z</time>
      </trkpt>
      <trkpt lat="44.52471" lon="1.6629">
        <ele>269</ele>
        <time>2018-05-10T11:41:50Z</time>
      </trkpt>
      <trkpt lat="44.52463" lon="1.66266">
        <ele>270</ele>
        <time>2018-05-10T11:42:10Z</time>
      </trkpt>
      <trkpt lat="44.52451" lon="1.66242">
        <ele>274</ele>
        <time>2018-05-10T11:42:31Z</time>
      </trkpt>
      <trkpt lat="44.52437" lon="1.66232">
        <ele>274</ele>
        <time>2018-05-10T11:42:52Z</time>
      </trkpt>
      <trkpt lat="44.52436" lon="1.6623">
        <ele>274</ele>
        <time>2018-05-10T11:43:12Z</time>
      </trkpt>
      <trkpt lat="44.52408" lon="1.66239">
        <ele>274</ele>
        <time>2018-05-10T11:43:33Z</time>
      </trkpt>
      <trkpt lat="44.52385" lon="1.6625">
        <ele>274</ele>
        <time>2018-05-10T11:43:54Z</time>
      </trkpt>
      <trkpt lat="44.52367" lon="1.66258">
        <ele>272</ele>
        <time>2018-05-10T11:44:14Z</time>
      </trkpt>
      <trkpt lat="44.52342" lon="1.66272">
        <ele>271</ele>
        <time>2018-05-10T11:44:35Z</time>
      </trkpt>
      <trkpt lat="44.52318" lon="1.66278">
        <ele>270</ele>
        <time>2018-05-10T11:44:55Z</time>
      </trkpt>
      <trkpt lat="44.52295" lon="1.66289">
        <ele>270</ele>
        <time>2018-05-10T11:45:15Z</time>
      </trkpt>
      <trkpt lat="44.52271" lon="1.66292">
        <ele>269</ele>
        <time>2018-05-10T11:45:36Z</time>
      </trkpt>
      <trkpt lat="44.52254" lon="1.66266">
        <ele>268</ele>
        <time>2018-05-10T11:45:57Z</time>
      </trkpt>
      <trkpt lat="44.52236" lon="1.66241">
        <ele>266</ele>
        <time>2018-05-10T11:46:18Z</time>
      </trkpt>
      <trkpt lat="44.52215" lon="1.66218">
        <ele>266</ele>
        <time>2018-05-10T11:46:38Z</time>
      </trkpt>
      <trkpt lat="44.52193" lon="1.66203">
        <ele>266</ele>
        <time>2018-05-10T11:46:59Z</time>
      </trkpt>
      <trkpt lat="44.52173" lon="1.66195">
        <ele>266</ele>
        <time>2018-05-10T11:47:20Z</time>
      </trkpt>
      <trkpt lat="44.52155" lon="1.66172">
        <ele>267</ele>
        <time>2018-05-10T11:47:40Z</time>
      </trkpt>
      <trkpt lat="44.52136" lon="1.6615">
        <ele>266</ele>
        <time>2018-05-10T11:48:01Z</time>
      </trkpt>
      <trkpt lat="44.52116" lon="1.66145">
        <ele>267</ele>
        <time>2018-05-10T11:48:22Z</time>
      </trkpt>
      <trkpt lat="44.52102" lon="1.66147">
        <ele>268</ele>
        <time>2018-05-10T11:48:42Z</time>
      </trkpt>
      <trkpt lat="44.52078" lon="1.66159">
        <ele>272</ele>
        <time>2018-05-10T11:49:02Z</time>
      </trkpt>
      <trkpt lat="44.52052" lon="1.66164">
        <ele>273</ele>
        <time>2018-05-10T11:49:23Z</time>
      </trkpt>
      <trkpt lat="44.52029" lon="1.66174">
        <ele>274</ele>
        <time>2018-05-10T11:49:44Z</time>
      </trkpt>
      <trkpt lat="44.52008" lon="1.66179">
        <ele>276</ele>
        <time>2018-05-10T11:50:04Z</time>
      </trkpt>
      <trkpt lat="44.51982" lon="1.66172">
        <ele>280</ele>
        <time>2018-05-10T11:50:25Z</time>
      </trkpt>
      <trkpt lat="44.5196" lon="1.6616">
        <ele>283</ele>
        <time>2018-05-10T11:50:45Z</time>
      </trkpt>
      <trkpt lat="44.51943" lon="1.66137">
        <ele>284</ele>
        <time>2018-05-10T11:51:06Z</time>
      </trkpt>
      <trkpt lat="44.51924" lon="1.66119">
        <ele>285</ele>
        <time>2018-05-10T11:51:27Z</time>
      </trkpt>
      <trkpt lat="44.51908" lon="1.66105">
        <ele>289</ele>
        <time>2018-05-10T11:51:48Z</time>
      </trkpt>
      <trkpt lat="44.51878" lon="1.66082">
        <ele>289</ele>
        <time>2018-05-10T11:52:08Z</time>
      </trkpt>
      <trkpt lat="44.51851" lon="1.6606">
        <ele>290</ele>
        <time>2018-05-10T11:52:29Z</time>
      </trkpt>
      <trkpt lat="44.51825" lon="1.66052">
        <ele>291</ele>
        <time>2018-05-10T11:52:50Z</time>
      </trkpt>
      <trkpt lat="44.51799" lon="1.66048">
        <ele>291</ele>
        <time>2018-05-10T11:53:10Z</time>
      </trkpt>
      <trkpt lat="44.51772" lon="1.6604">
        <ele>291</ele>
        <time>2018-05-10T11:53:31Z</time>
      </trkpt>
      <trkpt lat="44.51745" lon="1.66037">
        <ele>288</ele>
        <time>2018-05-10T11:53:52Z</time>
      </trkpt>
      <trkpt lat="44.51715" lon="1.66035">
        <ele>288</ele>
        <time>2018-05-10T11:54:13Z</time>
      </trkpt>
      <trkpt lat="44.51685" lon="1.66036">
        <ele>287</ele>
        <time>2018-05-10T11:54:33Z</time>
      </trkpt>
      <trkpt lat="44.51652" lon="1.6603">
        <ele>285</ele>
        <time>2018-05-10T11:54:54Z</time>
      </trkpt>
      <trkpt lat="44.5163" lon="1.66041">
        <ele>285</ele>
        <time>2018-05-10T11:55:14Z</time>
      </trkpt>
      <trkpt lat="44.51606" lon="1.66041">
        <ele>285</ele>
        <time>2018-05-10T11:55:35Z</time>
      </trkpt>
      <trkpt lat="44.51576" lon="1.66043">
        <ele>282</ele>
        <time>2018-05-10T11:55:55Z</time>
      </trkpt>
      <trkpt lat="44.51551" lon="1.66059">
        <ele>282</ele>
        <time>2018-05-10T11:56:16Z</time>
      </trkpt>
      <trkpt lat="44.51528" lon="1.66073">
        <ele>281</ele>
        <time>2018-05-10T11:56:36Z</time>
      </trkpt>
      <trkpt lat="44.51496" lon="1.66089">
        <ele>278</ele>
        <time>2018-05-10T11:56:57Z</time>
      </trkpt>
      <trkpt lat="44.51457" lon="1.66095">
        <ele>275</ele>
        <time>2018-05-10T11:57:18Z</time>
      </trkpt>
      <trkpt lat="44.51437" lon="1.66105">
        <ele>274</ele>
        <time>2018-05-10T11:57:39Z</time>
      </trkpt>
      <trkpt lat="44.51409" lon="1.66108">
        <ele>269</ele>
        <time>2018-05-10T11:58:00Z</time>
      </trkpt>
      <trkpt lat="44.51384" lon="1.66117">
        <ele>268</ele>
        <time>2018-05-10T11:58:21Z</time>
      </trkpt>
      <trkpt lat="44.51349" lon="1.66124">
        <ele>266</ele>
        <time>2018-05-10T11:58:42Z</time>
      </trkpt>
      <trkpt lat="44.51329" lon="1.66134">
        <ele>259</ele>
        <time>2018-05-10T11:59:02Z</time>
      </trkpt>
      <trkpt lat="44.51304" lon="1.66138">
        <ele>258</ele>
        <time>2018-05-10T11:59:23Z</time>
      </trkpt>
      <trkpt lat="44.51279" lon="1.66152">
        <ele>256</ele>
        <time>2018-05-10T11:59:44Z</time>
      </trkpt>
      <trkpt lat="44.51256" lon="1.66164">
        <ele>254</ele>
        <time>2018-05-10T12:00:04Z</time>
      </trkpt>
      <trkpt lat="44.51231" lon="1.6617">
        <ele>249</ele>
        <time>2018-05-10T12:00:25Z</time>
      </trkpt>
      <trkpt lat="44.51215" lon="1.6617">
        <ele>246</ele>
        <time>2018-05-10T12:00:45Z</time>
      </trkpt>
      <trkpt lat="44.51187" lon="1.66181">
        <ele>243</ele>
        <time>2018-05-10T12:01:06Z</time>
      </trkpt>
      <trkpt lat="44.51169" lon="1.66193">
        <ele>242</ele>
        <time>2018-05-10T12:01:27Z</time>
      </trkpt>
      <trkpt lat="44.51155" lon="1.66205">
        <ele>236</ele>
        <time>2018-05-10T12:01:47Z</time>
      </trkpt>
      <trkpt lat="44.51131" lon="1.66224">
        <ele>235</ele>
        <time>2018-05-10T12:02:08Z</time>
      </trkpt>
      <trkpt lat="44.51109" lon="1.66229">
        <ele>234</ele>
        <time>2018-05-10T12:02:29Z</time>
      </trkpt>
      <trkpt lat="44.51089" lon="1.66233">
        <ele>234</ele>
        <time>2018-05-10T12:02:49Z</time>
      </trkpt>
      <trkpt lat="44.51063" lon="1.66232">
        <ele>229</ele>
        <time>2018-05-10T12:03:10Z</time>
      </trkpt>
      <trkpt lat="44.51043" lon="1.66232">
        <ele>227</ele>
        <time>2018-05-10T12:03:30Z</time>
      </trkpt>
      <trkpt lat="44.51025" lon="1.66242">
        <ele>226</ele>
        <time>2018-05-10T12:03:50Z</time>
      </trkpt>
      <trkpt lat="44.51003" lon="1.66261">
        <ele>223</ele>
        <time>2018-05-10T12:04:11Z</time>
      </trkpt>
      <trkpt lat="44.50992" lon="1.66275">
        <ele>216</ele>
        <time>2018-05-10T12:04:31Z</time>
      </trkpt>
      <trkpt lat="44.50977" lon="1.66294">
        <ele>213</ele>
        <time>2018-05-10T12:04:51Z</time>
      </trkpt>
      <trkpt lat="44.50993" lon="1.66302">
        <ele>213</ele>
        <time>2018-05-10T12:05:12Z</time>
      </trkpt>
      <trkpt lat="44.50986" lon="1.66314">
        <ele>212</ele>
        <time>2018-05-10T12:05:33Z</time>
      </trkpt>
      <trkpt lat="44.50964" lon="1.66326">
        <ele>210</ele>
        <time>2018-05-10T12:05:54Z</time>
      </trkpt>
      <trkpt lat="44.50936" lon="1.66333">
        <ele>206</ele>
        <time>2018-05-10T12:06:15Z</time>
      </trkpt>
      <trkpt lat="44.50922" lon="1.66344">
        <ele>194</ele>
        <time>2018-05-10T12:06:35Z</time>
      </trkpt>
      <trkpt lat="44.50911" lon="1.66322">
        <ele>196</ele>
        <time>2018-05-10T12:06:56Z</time>
      </trkpt>
      <trkpt lat="44.50901" lon="1.66334">
        <ele>186</ele>
        <time>2018-05-10T12:07:17Z</time>
      </trkpt>
      <trkpt lat="44.50894" lon="1.66358">
        <ele>175</ele>
        <time>2018-05-10T12:07:38Z</time>
      </trkpt>
      <trkpt lat="44.50888" lon="1.66364">
        <ele>172</ele>
        <time>2018-05-10T12:07:58Z</time>
      </trkpt>
      <trkpt lat="44.50883" lon="1.66348">
        <ele>175</ele>
        <time>2018-05-10T12:08:19Z</time>
      </trkpt>
      <trkpt lat="44.5088" lon="1.66325">
        <ele>187</ele>
        <time>2018-05-10T12:08:39Z</time>
      </trkpt>
      <trkpt lat="44.50872" lon="1.66316">
        <ele>185</ele>
        <time>2018-05-10T12:08:59Z</time>
      </trkpt>
      <trkpt lat="44.50868" lon="1.66314">
        <ele>184</ele>
        <time>2018-05-10T12:09:20Z</time>
      </trkpt>
      <trkpt lat="44.50864" lon="1.66292">
        <ele>184</ele>
        <time>2018-05-10T12:09:41Z</time>
      </trkpt>
      <trkpt lat="44.50862" lon="1.66268">
        <ele>182</ele>
        <time>2018-05-10T12:10:02Z</time>
      </trkpt>
      <trkpt lat="44.5086" lon="1.66244">
        <ele>178</ele>
        <time>2018-05-10T12:10:23Z</time>
      </trkpt>
      <trkpt lat="44.50858" lon="1.66226">
        <ele>178</ele>
        <time>2018-05-10T12:10:44Z</time>
      </trkpt>
      <trkpt lat="44.50857" lon="1.6622">
        <ele>178</ele>
        <time>2018-05-10T12:11:04Z</time>
      </trkpt>
      <trkpt lat="44.50857" lon="1.66219">
        <ele>178</ele>
        <time>2018-05-10T12:11:25Z</time>
      </trkpt>
      <trkpt lat="44.50858" lon="1.66203">
        <ele>176</ele>
        <time>2018-05-10T12:11:45Z</time>
      </trkpt>
      <trkpt lat="44.50863" lon="1.6617">
        <ele>174</ele>
        <time>2018-05-10T12:12:06Z</time>
      </trkpt>
      <trkpt lat="44.50864" lon="1.66158">
        <ele>166</ele>
        <time>2018-05-10T12:12:27Z</time>
      </trkpt>
      <trkpt lat="44.50866" lon="1.66131">
        <ele>165</ele>
        <time>2018-05-10T12:12:48Z</time>
      </trkpt>
      <trkpt lat="44.50866" lon="1.66099">
        <ele>162</ele>
        <time>2018-05-10T12:13:08Z</time>
      </trkpt>
      <trkpt lat="44.50876" lon="1.66077">
        <ele>158</ele>
        <time>2018-05-10T12:13:29Z</time>
      </trkpt>
      <trkpt lat="44.50889" lon="1.66055">
        <ele>160</ele>
        <time>2018-05-10T12:13:49Z</time>
      </trkpt>
      <trkpt lat="44.50899" lon="1.66023">
        <ele>162</ele>
        <time>2018-05-10T12:14:10Z</time>
      </trkpt>
      <trkpt lat="44.50892" lon="1.65996">
        <ele>165</ele>
        <time>2018-05-10T12:14:30Z</time>
      </trkpt>
      <trkpt lat="44.50887" lon="1.65966">
        <ele>165</ele>
        <time>2018-05-10T12:14:51Z</time>
      </trkpt>
      <trkpt lat="44.50903" lon="1.6594">
        <ele>173</ele>
        <time>2018-05-10T12:15:12Z</time>
      </trkpt>
      <trkpt lat="44.50887" lon="1.65921">
        <ele>171</ele>
        <time>2018-05-10T12:15:33Z</time>
      </trkpt>
      <trkpt lat="44.50877" lon="1.65921">
        <ele>166</ele>
        <time>2018-05-10T12:15:53Z</time>
      </trkpt>
      <trkpt lat="44.50872" lon="1.65901">
        <ele>179</ele>
        <time>2018-05-10T12:16:13Z</time>
      </trkpt>
      <trkpt lat="44.50858" lon="1.65894">
        <ele>174</ele>
        <time>2018-05-10T12:16:34Z</time>
      </trkpt>
      <trkpt lat="44.50849" lon="1.65896">
        <ele>170</ele>
        <time>2018-05-10T12:16:55Z</time>
      </trkpt>
      <trkpt lat="44.50853" lon="1.65882">
        <ele>176</ele>
        <time>2018-05-10T12:17:16Z</time>
      </trkpt>
      <trkpt lat="44.50853" lon="1.65878">
        <ele>177</ele>
        <time>2018-05-10T12:17:37Z</time>
      </trkpt>
      <trkpt lat="44.50854" lon="1.65878">
        <ele>177</ele>
        <time>2018-05-10T12:17:58Z</time>
      </trkpt>
      <trkpt lat="44.50854" lon="1.65878">
        <ele>177</ele>
        <time>2018-05-10T12:18:19Z</time>
      </trkpt>
      <trkpt lat="44.50854" lon="1.65878">
        <ele>177</ele>
        <time>2018-05-10T12:18:39Z</time>
      </trkpt>
      <trkpt lat="44.50855" lon="1.65867">
        <ele>179</ele>
        <time>2018-05-10T12:19:00Z</time>
      </trkpt>
      <trkpt lat="44.50841" lon="1.65847">
        <ele>175</ele>
        <time>2018-05-10T12:19:21Z</time>
      </trkpt>
      <trkpt lat="44.50822" lon="1.65832">
        <ele>168</ele>
        <time>2018-05-10T12:19:41Z</time>
      </trkpt>
      <trkpt lat="44.50808" lon="1.65811">
        <ele>168</ele>
        <time>2018-05-10T12:20:02Z</time>
      </trkpt>
      <trkpt lat="44.50789" lon="1.65791">
        <ele>166</ele>
        <time>2018-05-10T12:20:22Z</time>
      </trkpt>
      <trkpt lat="44.50773" lon="1.65773">
        <ele>164</ele>
        <time>2018-05-10T12:20:43Z</time>
      </trkpt>
      <trkpt lat="44.50759" lon="1.65755">
        <ele>158</ele>
        <time>2018-05-10T12:21:04Z</time>
      </trkpt>
      <trkpt lat="44.50739" lon="1.65739">
        <ele>156</ele>
        <time>2018-05-10T12:21:24Z</time>
      </trkpt>
      <trkpt lat="44.50718" lon="1.65718">
        <ele>159</ele>
        <time>2018-05-10T12:21:45Z</time>
      </trkpt>
      <trkpt lat="44.50708" lon="1.65714">
        <ele>157</ele>
        <time>2018-05-10T12:22:06Z</time>
      </trkpt>
      <trkpt lat="44.50689" lon="1.65695">
        <ele>156</ele>
        <time>2018-05-10T12:22:26Z</time>
      </trkpt>
      <trkpt lat="44.50668" lon="1.65679">
        <ele>151</ele>
        <time>2018-05-10T12:22:47Z</time>
      </trkpt>
      <trkpt lat="44.50651" lon="1.65667">
        <ele>144</ele>
        <time>2018-05-10T12:23:07Z</time>
      </trkpt>
      <trkpt lat="44.50637" lon="1.6566">
        <ele>148</ele>
        <time>2018-05-10T12:23:28Z</time>
      </trkpt>
      <trkpt lat="44.50618" lon="1.65647">
        <ele>147</ele>
        <time>2018-05-10T12:23:48Z</time>
      </trkpt>
      <trkpt lat="44.50604" lon="1.65641">
        <ele>147</ele>
        <time>2018-05-10T12:24:08Z</time>
      </trkpt>
      <trkpt lat="44.50582" lon="1.6563">
        <ele>143</ele>
        <time>2018-05-10T12:24:29Z</time>
      </trkpt>
      <trkpt lat="44.50579" lon="1.65629">
        <ele>143</ele>
        <time>2018-05-10T12:24:49Z</time>
      </trkpt>
      <trkpt lat="44.50572" lon="1.6564">
        <ele>143</ele>
        <time>2018-05-10T12:25:09Z</time>
      </trkpt>
      <trkpt lat="44.50566" lon="1.65628">
        <ele>143</ele>
        <time>2018-05-10T12:25:30Z</time>
      </trkpt>
      <trkpt lat="44.50558" lon="1.65618">
        <ele>144</ele>
        <time>2018-05-10T12:25:51Z</time>
      </trkpt>
      <trkpt lat="44.50556" lon="1.65608">
        <ele>143</ele>
        <time>2018-05-10T12:26:11Z</time>
      </trkpt>
      <trkpt lat="44.50563" lon="1.65582">
        <ele>144</ele>
        <time>2018-05-10T12:26:31Z</time>
      </trkpt>
      <trkpt lat="44.50573" lon="1.65549">
        <ele>145</ele>
        <time>2018-05-10T12:26:51Z</time>
      </trkpt>
      <trkpt lat="44.50582" lon="1.65519">
        <ele>148</ele>
        <time>2018-05-10T12:27:12Z</time>
      </trkpt>
      <trkpt lat="44.5059" lon="1.65486">
        <ele>155</ele>
        <time>2018-05-10T12:27:33Z</time>
      </trkpt>
      <trkpt lat="44.50596" lon="1.6547">
        <ele>156</ele>
        <time>2018-05-10T12:27:54Z</time>
      </trkpt>
      <trkpt lat="44.50597" lon="1.65469">
        <ele>156</ele>
        <time>2018-05-10T12:28:15Z</time>
      </trkpt>
      <trkpt lat="44.50595" lon="1.65475">
        <ele>156</ele>
        <time>2018-05-10T12:28:35Z</time>
      </trkpt>
      <trkpt lat="44.50598" lon="1.65478">
        <ele>156</ele>
        <time>2018-05-10T12:28:56Z</time>
      </trkpt>
      <trkpt lat="44.50598" lon="1.65478">
        <ele>156</ele>
        <time>2018-05-10T12:29:16Z</time>
      </trkpt>
      <trkpt lat="44.50599" lon="1.65478">
        <ele>156</ele>
        <time>2018-05-10T12:29:37Z</time>
      </trkpt>
      <trkpt lat="44.50599" lon="1.65478">
        <ele>156</ele>
        <time>2018-05-10T12:29:57Z</time>
      </trkpt>
      <trkpt lat="44.50599" lon="1.65478">
        <ele>156</ele>
        <time>2018-05-10T12:30:17Z</time>
      </trkpt>
      <trkpt lat="44.50599" lon="1.65478">
        <ele>156</ele>
        <time>2018-05-10T12:30:38Z</time>
      </trkpt>
      <trkpt lat="44.50603" lon="1.65479">
        <ele>156</ele>
        <time>2018-05-10T12:30:58Z</time>
      </trkpt>
      <trkpt lat="44.50605" lon="1.65478">
        <ele>156</ele>
        <time>2018-05-10T12:31:19Z</time>
      </trkpt>
      <trkpt lat="44.50603" lon="1.65483">
        <ele>156</ele>
        <time>2018-05-10T12:31:40Z</time>
      </trkpt>
      <trkpt lat="44.50603" lon="1.65484">
        <ele>156</ele>
        <time>2018-05-10T12:32:00Z</time>
      </trkpt>
      <trkpt lat="44.50603" lon="1.65484">
        <ele>156</ele>
        <time>2018-05-10T12:32:20Z</time>
      </trkpt>
      <trkpt lat="44.50603" lon="1.65484">
        <ele>156</ele>
        <time>2018-05-10T12:32:41Z</time>
      </trkpt>
      <trkpt lat="44.50603" lon="1.65484">
        <ele>156</ele>
        <time>2018-05-10T12:33:02Z</time>
      </trkpt>
      <trkpt lat="44.50603" lon="1.65484">
        <ele>156</ele>
        <time>2018-05-10T12:33:23Z</time>
      </trkpt>
      <trkpt lat="44.50603" lon="1.65484">
        <ele>156</ele>
        <time>2018-05-10T12:33:44Z</time>
      </trkpt>
      <trkpt lat="44.50603" lon="1.65484">
        <ele>156</ele>
        <time>2018-05-10T12:34:05Z</time>
      </trkpt>
      <trkpt lat="44.50603" lon="1.65484">
        <ele>156</ele>
        <time>2018-05-10T12:34:25Z</time>
      </trkpt>
      <trkpt lat="44.50603" lon="1.65484">
        <ele>156</ele>
        <time>2018-05-10T12:34:46Z</time>
      </trkpt>
      <trkpt lat="44.50603" lon="1.65484">
        <ele>156</ele>
        <time>2018-05-10T12:35:06Z</time>
      </trkpt>
      <trkpt lat="44.50603" lon="1.65484">
        <ele>156</ele>
        <time>2018-05-10T12:35:26Z</time>
      </trkpt>
    </trkseg>
  </trk>
</gpx>